<?xml version="1.0" encoding="UTF-8" standalone="no" ?>
<gpx xmlns="http://www.topografix.com/GPX/1/1" xmlns:xsi="http://www.w3.org/2001/XMLSchema-instance" xsi:schemaLocation="http://www.topografix.com/GPX/1/1 http://www.topografix.com/GPX/1/1/gpx.xsd" version="1.1" creator="VisuGPX - https://www.visugpx.com">
  <metadata>
    <name>Baudinard 10,5km 320m</name>
    <desc><![CDATA[Des vues sur le lac, sur le barrage de Sainte-Croix, les moyennes gorges. Des murs, des vielles pierres, ... Superbes paysages en cette saison de printemps. ]]></desc>
  </metadata>
  <trk>
    <name><![CDATA[Baudinard 11km 340m]]></name>
    <extensions>
      <line xmlns="http://www.topografix.com/GPX/gpx_style/0/2">
        <color>0000FF</color>
        <width>4</width>
      </line>
    </extensions>
    <trkseg>
      <trkpt lat="43.71797" lon="6.13621">
        <ele>643.1</ele>
        <time>2022-03-28T12:07:42Z</time>
      </trkpt>
      <trkpt lat="43.71799" lon="6.13625">
        <ele>643.6</ele>
      </trkpt>
      <trkpt lat="43.71805" lon="6.13627">
        <ele>643.8</ele>
      </trkpt>
      <trkpt lat="43.71808" lon="6.13629">
        <ele>644</ele>
      </trkpt>
      <trkpt lat="43.71808" lon="6.13634">
        <ele>644.9</ele>
      </trkpt>
      <trkpt lat="43.71799" lon="6.13636">
        <ele>645.4</ele>
      </trkpt>
      <trkpt lat="43.71792" lon="6.13639">
        <ele>645.6</ele>
      </trkpt>
      <trkpt lat="43.71788" lon="6.13644">
        <ele>646.1</ele>
      </trkpt>
      <trkpt lat="43.71784" lon="6.13648">
        <ele>646.3</ele>
      </trkpt>
      <trkpt lat="43.71781" lon="6.1365">
        <ele>646.4</ele>
      </trkpt>
      <trkpt lat="43.71778" lon="6.13654">
        <ele>646.6</ele>
      </trkpt>
      <trkpt lat="43.71775" lon="6.13656">
        <ele>646.6</ele>
      </trkpt>
      <trkpt lat="43.71776" lon="6.13673">
        <ele>648</ele>
        <time>2022-03-28T12:08:27Z</time>
      </trkpt>
      <trkpt lat="43.71779" lon="6.13689">
        <ele>649.1</ele>
        <time>2022-03-28T12:08:40Z</time>
      </trkpt>
      <trkpt lat="43.71786" lon="6.13711">
        <ele>650.8</ele>
        <time>2022-03-28T12:08:58Z</time>
      </trkpt>
      <trkpt lat="43.71792" lon="6.13725">
        <ele>652</ele>
        <time>2022-03-28T12:09:09Z</time>
      </trkpt>
      <trkpt lat="43.71803" lon="6.13745">
        <ele>655.1</ele>
        <time>2022-03-28T12:09:27Z</time>
      </trkpt>
      <trkpt lat="43.71806" lon="6.13762">
        <ele>657.4</ele>
        <time>2022-03-28T12:09:39Z</time>
      </trkpt>
      <trkpt lat="43.718" lon="6.13791">
        <ele>660.3</ele>
        <time>2022-03-28T12:10:03Z</time>
      </trkpt>
      <trkpt lat="43.71785" lon="6.13814">
        <ele>661.5</ele>
        <time>2022-03-28T12:10:22Z</time>
      </trkpt>
      <trkpt lat="43.71779" lon="6.13828">
        <ele>663</ele>
        <time>2022-03-28T12:10:33Z</time>
      </trkpt>
      <trkpt lat="43.7177" lon="6.13841">
        <ele>663.5</ele>
        <time>2022-03-28T12:10:44Z</time>
      </trkpt>
      <trkpt lat="43.71766" lon="6.13856">
        <ele>664.6</ele>
        <time>2022-03-28T12:10:55Z</time>
      </trkpt>
      <trkpt lat="43.71766" lon="6.13868">
        <ele>665.4</ele>
        <time>2022-03-28T12:11:04Z</time>
      </trkpt>
      <trkpt lat="43.71773" lon="6.13886">
        <ele>666.4</ele>
        <time>2022-03-28T12:11:13Z</time>
      </trkpt>
      <trkpt lat="43.71776" lon="6.13886">
        <ele>666.8</ele>
        <time>2022-03-28T12:11:22Z</time>
      </trkpt>
      <trkpt lat="43.71783" lon="6.13885">
        <ele>667.4</ele>
        <time>2022-03-28T12:11:32Z</time>
      </trkpt>
      <trkpt lat="43.7179" lon="6.13882">
        <ele>667.9</ele>
        <time>2022-03-28T12:11:42Z</time>
      </trkpt>
      <trkpt lat="43.71799" lon="6.13878">
        <ele>668.5</ele>
        <time>2022-03-28T12:11:53Z</time>
      </trkpt>
      <trkpt lat="43.71808" lon="6.13876">
        <ele>669.3</ele>
        <time>2022-03-28T12:12:04Z</time>
      </trkpt>
      <trkpt lat="43.71816" lon="6.13867">
        <ele>670.4</ele>
        <time>2022-03-28T12:12:30Z</time>
      </trkpt>
      <trkpt lat="43.71827" lon="6.1386">
        <ele>672</ele>
        <time>2022-03-28T12:12:45Z</time>
      </trkpt>
      <trkpt lat="43.71835" lon="6.13852">
        <ele>673.2</ele>
        <time>2022-03-28T12:12:56Z</time>
      </trkpt>
      <trkpt lat="43.71844" lon="6.13842">
        <ele>674</ele>
        <time>2022-03-28T12:13:06Z</time>
      </trkpt>
      <trkpt lat="43.71851" lon="6.13834">
        <ele>674.9</ele>
        <time>2022-03-28T12:13:15Z</time>
      </trkpt>
      <trkpt lat="43.71859" lon="6.13824">
        <ele>675.8</ele>
        <time>2022-03-28T12:13:24Z</time>
      </trkpt>
      <trkpt lat="43.71867" lon="6.13815">
        <ele>676.2</ele>
        <time>2022-03-28T12:13:32Z</time>
      </trkpt>
      <trkpt lat="43.71876" lon="6.13814">
        <ele>676.5</ele>
        <time>2022-03-28T12:13:40Z</time>
      </trkpt>
      <trkpt lat="43.71887" lon="6.13818">
        <ele>676.9</ele>
        <time>2022-03-28T12:13:49Z</time>
      </trkpt>
      <trkpt lat="43.71897" lon="6.1382">
        <ele>677.4</ele>
        <time>2022-03-28T12:13:59Z</time>
      </trkpt>
      <trkpt lat="43.71909" lon="6.13822">
        <ele>678.1</ele>
        <time>2022-03-28T12:14:08Z</time>
      </trkpt>
      <trkpt lat="43.71919" lon="6.13824">
        <ele>678.8</ele>
        <time>2022-03-28T12:14:17Z</time>
      </trkpt>
      <trkpt lat="43.71927" lon="6.13827">
        <ele>679.5</ele>
        <time>2022-03-28T12:14:26Z</time>
      </trkpt>
      <trkpt lat="43.71938" lon="6.13829">
        <ele>680.4</ele>
        <time>2022-03-28T12:14:37Z</time>
      </trkpt>
      <trkpt lat="43.7195" lon="6.1383">
        <ele>681.3</ele>
        <time>2022-03-28T12:14:46Z</time>
      </trkpt>
      <trkpt lat="43.71961" lon="6.13832">
        <ele>682.1</ele>
        <time>2022-03-28T12:14:55Z</time>
      </trkpt>
      <trkpt lat="43.7197" lon="6.13834">
        <ele>682.9</ele>
        <time>2022-03-28T12:15:05Z</time>
      </trkpt>
      <trkpt lat="43.71981" lon="6.13838">
        <ele>683.2</ele>
        <time>2022-03-28T12:15:16Z</time>
      </trkpt>
      <trkpt lat="43.71992" lon="6.13841">
        <ele>683.6</ele>
        <time>2022-03-28T12:15:27Z</time>
      </trkpt>
      <trkpt lat="43.72004" lon="6.13841">
        <ele>684.3</ele>
        <time>2022-03-28T12:15:37Z</time>
      </trkpt>
      <trkpt lat="43.72014" lon="6.13842">
        <ele>684.9</ele>
        <time>2022-03-28T12:15:46Z</time>
      </trkpt>
      <trkpt lat="43.72026" lon="6.13845">
        <ele>685.5</ele>
        <time>2022-03-28T12:15:56Z</time>
      </trkpt>
      <trkpt lat="43.72043" lon="6.13848">
        <ele>686.3</ele>
        <time>2022-03-28T12:16:06Z</time>
      </trkpt>
      <trkpt lat="43.72052" lon="6.1385">
        <ele>686.8</ele>
        <time>2022-03-28T12:16:16Z</time>
      </trkpt>
      <trkpt lat="43.72064" lon="6.13854">
        <ele>687.6</ele>
        <time>2022-03-28T12:16:28Z</time>
      </trkpt>
      <trkpt lat="43.72078" lon="6.13856">
        <ele>688.6</ele>
        <time>2022-03-28T12:16:39Z</time>
      </trkpt>
      <trkpt lat="43.7209" lon="6.13858">
        <ele>689.5</ele>
        <time>2022-03-28T12:16:48Z</time>
      </trkpt>
      <trkpt lat="43.72101" lon="6.1386">
        <ele>690.3</ele>
        <time>2022-03-28T12:16:58Z</time>
      </trkpt>
      <trkpt lat="43.72113" lon="6.13862">
        <ele>691</ele>
        <time>2022-03-28T12:17:08Z</time>
      </trkpt>
      <trkpt lat="43.72125" lon="6.13864">
        <ele>691.5</ele>
        <time>2022-03-28T12:17:18Z</time>
      </trkpt>
      <trkpt lat="43.72135" lon="6.13865">
        <ele>691.9</ele>
        <time>2022-03-28T12:17:27Z</time>
      </trkpt>
      <trkpt lat="43.72145" lon="6.13868">
        <ele>692.5</ele>
        <time>2022-03-28T12:17:36Z</time>
      </trkpt>
      <trkpt lat="43.72157" lon="6.13869">
        <ele>693.5</ele>
        <time>2022-03-28T12:17:44Z</time>
      </trkpt>
      <trkpt lat="43.72166" lon="6.13872">
        <ele>694.4</ele>
        <time>2022-03-28T12:17:52Z</time>
      </trkpt>
      <trkpt lat="43.72176" lon="6.13873">
        <ele>695.1</ele>
        <time>2022-03-28T12:18:01Z</time>
      </trkpt>
      <trkpt lat="43.72185" lon="6.13876">
        <ele>695.9</ele>
        <time>2022-03-28T12:18:09Z</time>
      </trkpt>
      <trkpt lat="43.72194" lon="6.13877">
        <ele>696.6</ele>
        <time>2022-03-28T12:18:18Z</time>
      </trkpt>
      <trkpt lat="43.72204" lon="6.1388">
        <ele>697.4</ele>
        <time>2022-03-28T12:18:27Z</time>
      </trkpt>
      <trkpt lat="43.72213" lon="6.13883">
        <ele>698.1</ele>
        <time>2022-03-28T12:18:36Z</time>
      </trkpt>
      <trkpt lat="43.72223" lon="6.13884">
        <ele>698.9</ele>
        <time>2022-03-28T12:18:45Z</time>
      </trkpt>
      <trkpt lat="43.72233" lon="6.13885">
        <ele>700</ele>
        <time>2022-03-28T12:18:55Z</time>
      </trkpt>
      <trkpt lat="43.72243" lon="6.13888">
        <ele>701.1</ele>
        <time>2022-03-28T12:19:03Z</time>
      </trkpt>
      <trkpt lat="43.72252" lon="6.1389">
        <ele>702.1</ele>
        <time>2022-03-28T12:19:12Z</time>
      </trkpt>
      <trkpt lat="43.7226" lon="6.13893">
        <ele>702.7</ele>
        <time>2022-03-28T12:19:21Z</time>
      </trkpt>
      <trkpt lat="43.72271" lon="6.13896">
        <ele>703.5</ele>
        <time>2022-03-28T12:19:31Z</time>
      </trkpt>
      <trkpt lat="43.72281" lon="6.13896">
        <ele>704.3</ele>
        <time>2022-03-28T12:19:40Z</time>
      </trkpt>
      <trkpt lat="43.7229" lon="6.13898">
        <ele>704.9</ele>
        <time>2022-03-28T12:19:49Z</time>
      </trkpt>
      <trkpt lat="43.72299" lon="6.13894">
        <ele>705.5</ele>
        <time>2022-03-28T12:19:59Z</time>
      </trkpt>
      <trkpt lat="43.72305" lon="6.1389">
        <ele>706</ele>
      </trkpt>
      <trkpt lat="43.72307" lon="6.13884">
        <ele>706</ele>
      </trkpt>
      <trkpt lat="43.7231" lon="6.1388">
        <ele>706.1</ele>
      </trkpt>
      <trkpt lat="43.72312" lon="6.13874">
        <ele>706.1</ele>
      </trkpt>
      <trkpt lat="43.72314" lon="6.13869">
        <ele>706</ele>
      </trkpt>
      <trkpt lat="43.72316" lon="6.13866">
        <ele>705.9</ele>
      </trkpt>
      <trkpt lat="43.72317" lon="6.13861">
        <ele>705.8</ele>
      </trkpt>
      <trkpt lat="43.72321" lon="6.13855">
        <ele>705.4</ele>
      </trkpt>
      <trkpt lat="43.72321" lon="6.13853">
        <ele>705.3</ele>
      </trkpt>
      <trkpt lat="43.72321" lon="6.13862">
        <ele>706.2</ele>
      </trkpt>
      <trkpt lat="43.72321" lon="6.13869">
        <ele>706.5</ele>
      </trkpt>
      <trkpt lat="43.72324" lon="6.1387">
        <ele>706.9</ele>
      </trkpt>
      <trkpt lat="43.72326" lon="6.13874">
        <ele>707.3</ele>
      </trkpt>
      <trkpt lat="43.72331" lon="6.13878">
        <ele>708</ele>
      </trkpt>
      <trkpt lat="43.72331" lon="6.13883">
        <ele>708.4</ele>
      </trkpt>
      <trkpt lat="43.72333" lon="6.13886">
        <ele>708.8</ele>
      </trkpt>
      <trkpt lat="43.72335" lon="6.13892">
        <ele>709.1</ele>
      </trkpt>
      <trkpt lat="43.72337" lon="6.13895">
        <ele>709.1</ele>
      </trkpt>
      <trkpt lat="43.72338" lon="6.13897">
        <ele>709.2</ele>
      </trkpt>
      <trkpt lat="43.72341" lon="6.13898">
        <ele>709.3</ele>
      </trkpt>
      <trkpt lat="43.72339" lon="6.13911">
        <ele>709.2</ele>
        <time>2022-03-28T12:22:20Z</time>
      </trkpt>
      <trkpt lat="43.72349" lon="6.13918">
        <ele>709.5</ele>
        <time>2022-03-28T12:22:29Z</time>
      </trkpt>
      <trkpt lat="43.72353" lon="6.13929">
        <ele>708.9</ele>
        <time>2022-03-28T12:22:38Z</time>
      </trkpt>
      <trkpt lat="43.72354" lon="6.13944">
        <ele>707.8</ele>
        <time>2022-03-28T12:23:12Z</time>
      </trkpt>
      <trkpt lat="43.72355" lon="6.13937">
        <ele>708.3</ele>
        <time>2022-03-28T12:25:41Z</time>
      </trkpt>
      <trkpt lat="43.72357" lon="6.13928">
        <ele>709</ele>
        <time>2022-03-28T12:50:13Z</time>
      </trkpt>
      <trkpt lat="43.7236" lon="6.13922">
        <ele>709.6</ele>
        <time>2022-03-28T12:50:40Z</time>
      </trkpt>
      <trkpt lat="43.72365" lon="6.13914">
        <ele>709.8</ele>
        <time>2022-03-28T12:50:51Z</time>
      </trkpt>
      <trkpt lat="43.72371" lon="6.13904">
        <ele>709.5</ele>
        <time>2022-03-28T12:51:01Z</time>
      </trkpt>
      <trkpt lat="43.72379" lon="6.13897">
        <ele>709.2</ele>
        <time>2022-03-28T12:51:14Z</time>
      </trkpt>
      <trkpt lat="43.72387" lon="6.13891">
        <ele>709</ele>
        <time>2022-03-28T12:51:24Z</time>
      </trkpt>
      <trkpt lat="43.72398" lon="6.13884">
        <ele>708.3</ele>
        <time>2022-03-28T12:51:33Z</time>
      </trkpt>
      <trkpt lat="43.72409" lon="6.13879">
        <ele>707.6</ele>
        <time>2022-03-28T12:51:42Z</time>
      </trkpt>
      <trkpt lat="43.72415" lon="6.13867">
        <ele>707.1</ele>
        <time>2022-03-28T12:51:52Z</time>
      </trkpt>
      <trkpt lat="43.72418" lon="6.13854">
        <ele>706.6</ele>
        <time>2022-03-28T12:52:01Z</time>
      </trkpt>
      <trkpt lat="43.72423" lon="6.13841">
        <ele>705.7</ele>
        <time>2022-03-28T12:52:10Z</time>
      </trkpt>
      <trkpt lat="43.72429" lon="6.13832">
        <ele>705</ele>
        <time>2022-03-28T12:52:19Z</time>
      </trkpt>
      <trkpt lat="43.72436" lon="6.13819">
        <ele>703.9</ele>
        <time>2022-03-28T12:52:28Z</time>
      </trkpt>
      <trkpt lat="43.72443" lon="6.13808">
        <ele>703.2</ele>
        <time>2022-03-28T12:52:38Z</time>
      </trkpt>
      <trkpt lat="43.72451" lon="6.13798">
        <ele>702</ele>
        <time>2022-03-28T12:52:49Z</time>
      </trkpt>
      <trkpt lat="43.72463" lon="6.13796">
        <ele>701.2</ele>
        <time>2022-03-28T12:52:59Z</time>
      </trkpt>
      <trkpt lat="43.72474" lon="6.13801">
        <ele>700.7</ele>
        <time>2022-03-28T12:53:09Z</time>
      </trkpt>
      <trkpt lat="43.72486" lon="6.13805">
        <ele>700</ele>
        <time>2022-03-28T12:53:19Z</time>
      </trkpt>
      <trkpt lat="43.72498" lon="6.13809">
        <ele>699</ele>
        <time>2022-03-28T12:53:29Z</time>
      </trkpt>
      <trkpt lat="43.72509" lon="6.13812">
        <ele>698.1</ele>
        <time>2022-03-28T12:53:38Z</time>
      </trkpt>
      <trkpt lat="43.7252" lon="6.13814">
        <ele>697</ele>
        <time>2022-03-28T12:53:47Z</time>
      </trkpt>
      <trkpt lat="43.72529" lon="6.13815">
        <ele>696.2</ele>
        <time>2022-03-28T12:53:56Z</time>
      </trkpt>
      <trkpt lat="43.72541" lon="6.13815">
        <ele>695.1</ele>
        <time>2022-03-28T12:54:05Z</time>
      </trkpt>
      <trkpt lat="43.72552" lon="6.13812">
        <ele>694.2</ele>
        <time>2022-03-28T12:54:15Z</time>
      </trkpt>
      <trkpt lat="43.72559" lon="6.13807">
        <ele>693.7</ele>
        <time>2022-03-28T12:54:24Z</time>
      </trkpt>
      <trkpt lat="43.72566" lon="6.138">
        <ele>693.5</ele>
        <time>2022-03-28T12:54:35Z</time>
      </trkpt>
      <trkpt lat="43.72573" lon="6.13791">
        <ele>693.3</ele>
        <time>2022-03-28T12:54:48Z</time>
      </trkpt>
      <trkpt lat="43.72581" lon="6.1378">
        <ele>693.1</ele>
        <time>2022-03-28T12:54:57Z</time>
      </trkpt>
      <trkpt lat="43.72586" lon="6.13768">
        <ele>693.1</ele>
        <time>2022-03-28T12:55:06Z</time>
      </trkpt>
      <trkpt lat="43.72591" lon="6.13755">
        <ele>693.3</ele>
        <time>2022-03-28T12:55:16Z</time>
      </trkpt>
      <trkpt lat="43.72599" lon="6.13749">
        <ele>692.9</ele>
        <time>2022-03-28T12:55:26Z</time>
      </trkpt>
      <trkpt lat="43.72608" lon="6.13737">
        <ele>692.6</ele>
        <time>2022-03-28T12:55:36Z</time>
      </trkpt>
      <trkpt lat="43.72615" lon="6.13726">
        <ele>692.6</ele>
        <time>2022-03-28T12:55:46Z</time>
      </trkpt>
      <trkpt lat="43.72622" lon="6.13716">
        <ele>692.4</ele>
        <time>2022-03-28T12:55:56Z</time>
      </trkpt>
      <trkpt lat="43.72629" lon="6.13701">
        <ele>692.7</ele>
        <time>2022-03-28T12:56:05Z</time>
      </trkpt>
      <trkpt lat="43.72633" lon="6.13687">
        <ele>693</ele>
        <time>2022-03-28T12:56:14Z</time>
      </trkpt>
      <trkpt lat="43.72637" lon="6.13672">
        <ele>693</ele>
        <time>2022-03-28T12:56:24Z</time>
      </trkpt>
      <trkpt lat="43.72643" lon="6.13656">
        <ele>692.9</ele>
        <time>2022-03-28T12:56:35Z</time>
      </trkpt>
      <trkpt lat="43.72647" lon="6.13642">
        <ele>693</ele>
        <time>2022-03-28T12:56:45Z</time>
      </trkpt>
      <trkpt lat="43.72652" lon="6.1363">
        <ele>692.8</ele>
        <time>2022-03-28T12:56:55Z</time>
      </trkpt>
      <trkpt lat="43.72661" lon="6.13618">
        <ele>692.9</ele>
        <time>2022-03-28T12:57:04Z</time>
      </trkpt>
      <trkpt lat="43.72665" lon="6.13605">
        <ele>692.7</ele>
        <time>2022-03-28T12:57:13Z</time>
      </trkpt>
      <trkpt lat="43.72672" lon="6.13596">
        <ele>692.4</ele>
        <time>2022-03-28T12:57:23Z</time>
      </trkpt>
      <trkpt lat="43.72681" lon="6.13586">
        <ele>692.1</ele>
        <time>2022-03-28T12:57:33Z</time>
      </trkpt>
      <trkpt lat="43.72688" lon="6.13575">
        <ele>691.7</ele>
        <time>2022-03-28T12:57:43Z</time>
      </trkpt>
      <trkpt lat="43.72697" lon="6.13569">
        <ele>691.5</ele>
        <time>2022-03-28T12:57:52Z</time>
      </trkpt>
      <trkpt lat="43.72705" lon="6.13563">
        <ele>691.3</ele>
        <time>2022-03-28T12:58:00Z</time>
      </trkpt>
      <trkpt lat="43.72713" lon="6.13553">
        <ele>690.9</ele>
        <time>2022-03-28T12:58:09Z</time>
      </trkpt>
      <trkpt lat="43.72721" lon="6.13544">
        <ele>690.6</ele>
        <time>2022-03-28T12:58:18Z</time>
      </trkpt>
      <trkpt lat="43.72729" lon="6.13535">
        <ele>690.3</ele>
        <time>2022-03-28T12:58:27Z</time>
      </trkpt>
      <trkpt lat="43.72737" lon="6.13525">
        <ele>689.9</ele>
        <time>2022-03-28T12:58:36Z</time>
      </trkpt>
      <trkpt lat="43.72745" lon="6.13516">
        <ele>689.6</ele>
        <time>2022-03-28T12:58:45Z</time>
      </trkpt>
      <trkpt lat="43.72752" lon="6.13508">
        <ele>689.3</ele>
        <time>2022-03-28T12:58:55Z</time>
      </trkpt>
      <trkpt lat="43.7276" lon="6.135">
        <ele>689</ele>
        <time>2022-03-28T12:59:05Z</time>
      </trkpt>
      <trkpt lat="43.72769" lon="6.13488">
        <ele>688.6</ele>
        <time>2022-03-28T12:59:13Z</time>
      </trkpt>
      <trkpt lat="43.72774" lon="6.13475">
        <ele>688.1</ele>
        <time>2022-03-28T12:59:22Z</time>
      </trkpt>
      <trkpt lat="43.72779" lon="6.13462">
        <ele>687.6</ele>
        <time>2022-03-28T12:59:32Z</time>
      </trkpt>
      <trkpt lat="43.72787" lon="6.13457">
        <ele>687.5</ele>
        <time>2022-03-28T12:59:42Z</time>
      </trkpt>
      <trkpt lat="43.72797" lon="6.13462">
        <ele>687.6</ele>
        <time>2022-03-28T12:59:51Z</time>
      </trkpt>
      <trkpt lat="43.72806" lon="6.1347">
        <ele>687.9</ele>
        <time>2022-03-28T13:00:00Z</time>
      </trkpt>
      <trkpt lat="43.72816" lon="6.13477">
        <ele>687.7</ele>
        <time>2022-03-28T13:00:09Z</time>
      </trkpt>
      <trkpt lat="43.72826" lon="6.13483">
        <ele>687.4</ele>
        <time>2022-03-28T13:00:19Z</time>
      </trkpt>
      <trkpt lat="43.72836" lon="6.13483">
        <ele>686.8</ele>
        <time>2022-03-28T13:00:28Z</time>
      </trkpt>
      <trkpt lat="43.72844" lon="6.13467">
        <ele>686.6</ele>
        <time>2022-03-28T13:00:39Z</time>
      </trkpt>
      <trkpt lat="43.7285" lon="6.13456">
        <ele>686.4</ele>
        <time>2022-03-28T13:00:50Z</time>
      </trkpt>
      <trkpt lat="43.72863" lon="6.13451">
        <ele>685.9</ele>
        <time>2022-03-28T13:01:00Z</time>
      </trkpt>
      <trkpt lat="43.72873" lon="6.13451">
        <ele>685.5</ele>
        <time>2022-03-28T13:01:08Z</time>
      </trkpt>
      <trkpt lat="43.72881" lon="6.13448">
        <ele>685.2</ele>
        <time>2022-03-28T13:01:17Z</time>
      </trkpt>
      <trkpt lat="43.7289" lon="6.13439">
        <ele>685.1</ele>
        <time>2022-03-28T13:01:25Z</time>
      </trkpt>
      <trkpt lat="43.72901" lon="6.13435">
        <ele>684.9</ele>
        <time>2022-03-28T13:01:34Z</time>
      </trkpt>
      <trkpt lat="43.72911" lon="6.13437">
        <ele>684.5</ele>
        <time>2022-03-28T13:01:43Z</time>
      </trkpt>
      <trkpt lat="43.72921" lon="6.13442">
        <ele>683.8</ele>
        <time>2022-03-28T13:01:52Z</time>
      </trkpt>
      <trkpt lat="43.72934" lon="6.13445">
        <ele>682.7</ele>
        <time>2022-03-28T13:02:02Z</time>
      </trkpt>
      <trkpt lat="43.72946" lon="6.13448">
        <ele>681.4</ele>
        <time>2022-03-28T13:02:12Z</time>
      </trkpt>
      <trkpt lat="43.72957" lon="6.13449">
        <ele>680.3</ele>
        <time>2022-03-28T13:02:22Z</time>
      </trkpt>
      <trkpt lat="43.72967" lon="6.1345">
        <ele>679.4</ele>
        <time>2022-03-28T13:02:31Z</time>
      </trkpt>
      <trkpt lat="43.72978" lon="6.13453">
        <ele>677.9</ele>
        <time>2022-03-28T13:02:42Z</time>
      </trkpt>
      <trkpt lat="43.72989" lon="6.13455">
        <ele>676.8</ele>
        <time>2022-03-28T13:02:53Z</time>
      </trkpt>
      <trkpt lat="43.73001" lon="6.13457">
        <ele>675.2</ele>
        <time>2022-03-28T13:03:06Z</time>
      </trkpt>
      <trkpt lat="43.73012" lon="6.13462">
        <ele>672.7</ele>
        <time>2022-03-28T13:03:17Z</time>
      </trkpt>
      <trkpt lat="43.73023" lon="6.13463">
        <ele>671.3</ele>
        <time>2022-03-28T13:03:28Z</time>
      </trkpt>
      <trkpt lat="43.73035" lon="6.13462">
        <ele>670.2</ele>
        <time>2022-03-28T13:03:39Z</time>
      </trkpt>
      <trkpt lat="43.73046" lon="6.13465">
        <ele>668.4</ele>
        <time>2022-03-28T13:03:50Z</time>
      </trkpt>
      <trkpt lat="43.73059" lon="6.13465">
        <ele>667.2</ele>
        <time>2022-03-28T13:04:02Z</time>
      </trkpt>
      <trkpt lat="43.73072" lon="6.13466">
        <ele>666.2</ele>
        <time>2022-03-28T13:04:14Z</time>
      </trkpt>
      <trkpt lat="43.73082" lon="6.13469">
        <ele>664.9</ele>
        <time>2022-03-28T13:04:26Z</time>
      </trkpt>
      <trkpt lat="43.73093" lon="6.13473">
        <ele>663.6</ele>
        <time>2022-03-28T13:04:37Z</time>
      </trkpt>
      <trkpt lat="43.73104" lon="6.13474">
        <ele>662.7</ele>
        <time>2022-03-28T13:04:49Z</time>
      </trkpt>
      <trkpt lat="43.73114" lon="6.13476">
        <ele>661.3</ele>
        <time>2022-03-28T13:05:02Z</time>
      </trkpt>
      <trkpt lat="43.73126" lon="6.13477">
        <ele>660</ele>
        <time>2022-03-28T13:05:14Z</time>
      </trkpt>
      <trkpt lat="43.73141" lon="6.13478">
        <ele>658.2</ele>
        <time>2022-03-28T13:05:26Z</time>
      </trkpt>
      <trkpt lat="43.73154" lon="6.1348">
        <ele>655.7</ele>
        <time>2022-03-28T13:05:40Z</time>
      </trkpt>
      <trkpt lat="43.73167" lon="6.13481">
        <ele>653.5</ele>
        <time>2022-03-28T13:05:52Z</time>
      </trkpt>
      <trkpt lat="43.73184" lon="6.1347">
        <ele>652.8</ele>
        <time>2022-03-28T13:06:07Z</time>
      </trkpt>
      <trkpt lat="43.73193" lon="6.13467">
        <ele>651.9</ele>
        <time>2022-03-28T13:06:23Z</time>
      </trkpt>
      <trkpt lat="43.73196" lon="6.13461">
        <ele>652.9</ele>
        <time>2022-03-28T13:07:41Z</time>
      </trkpt>
      <trkpt lat="43.73196" lon="6.13462">
        <ele>652.7</ele>
        <time>2022-03-28T13:07:49Z</time>
      </trkpt>
      <trkpt lat="43.73196" lon="6.13459">
        <ele>653.4</ele>
        <time>2022-03-28T13:08:05Z</time>
      </trkpt>
      <trkpt lat="43.73204" lon="6.13463">
        <ele>650.5</ele>
        <time>2022-03-28T13:08:28Z</time>
      </trkpt>
      <trkpt lat="43.73213" lon="6.13461">
        <ele>648.7</ele>
        <time>2022-03-28T13:08:41Z</time>
      </trkpt>
      <trkpt lat="43.73223" lon="6.13456">
        <ele>647.1</ele>
        <time>2022-03-28T13:08:54Z</time>
      </trkpt>
      <trkpt lat="43.73233" lon="6.13447">
        <ele>645.8</ele>
        <time>2022-03-28T13:09:05Z</time>
      </trkpt>
      <trkpt lat="43.73241" lon="6.13438">
        <ele>645.2</ele>
        <time>2022-03-28T13:09:15Z</time>
      </trkpt>
      <trkpt lat="43.73245" lon="6.13426">
        <ele>646.6</ele>
        <time>2022-03-28T13:09:26Z</time>
      </trkpt>
      <trkpt lat="43.73245" lon="6.13406">
        <ele>650.7</ele>
        <time>2022-03-28T13:09:39Z</time>
      </trkpt>
      <trkpt lat="43.73256" lon="6.13399">
        <ele>648.1</ele>
        <time>2022-03-28T13:09:50Z</time>
      </trkpt>
      <trkpt lat="43.73263" lon="6.13389">
        <ele>647.7</ele>
        <time>2022-03-28T13:09:59Z</time>
      </trkpt>
      <trkpt lat="43.73267" lon="6.13379">
        <ele>648.5</ele>
        <time>2022-03-28T13:10:09Z</time>
      </trkpt>
      <trkpt lat="43.73272" lon="6.13371">
        <ele>648.3</ele>
        <time>2022-03-28T13:10:22Z</time>
      </trkpt>
      <trkpt lat="43.73279" lon="6.1336">
        <ele>647.7</ele>
        <time>2022-03-28T13:10:34Z</time>
      </trkpt>
      <trkpt lat="43.73288" lon="6.13349">
        <ele>647</ele>
        <time>2022-03-28T13:10:46Z</time>
      </trkpt>
      <trkpt lat="43.73293" lon="6.13342">
        <ele>647.3</ele>
      </trkpt>
      <trkpt lat="43.733" lon="6.13334">
        <ele>647.4</ele>
      </trkpt>
      <trkpt lat="43.73309" lon="6.13329">
        <ele>646.3</ele>
      </trkpt>
      <trkpt lat="43.73317" lon="6.13327">
        <ele>644.9</ele>
        <time>2022-03-28T13:10:58Z</time>
      </trkpt>
      <trkpt lat="43.73325" lon="6.13324">
        <ele>643.7</ele>
        <time>2022-03-28T13:11:12Z</time>
      </trkpt>
      <trkpt lat="43.73338" lon="6.13322">
        <ele>641.4</ele>
        <time>2022-03-28T13:11:23Z</time>
      </trkpt>
      <trkpt lat="43.73347" lon="6.13322">
        <ele>639.5</ele>
        <time>2022-03-28T13:11:34Z</time>
      </trkpt>
      <trkpt lat="43.73352" lon="6.13321">
        <ele>638.5</ele>
        <time>2022-03-28T13:11:45Z</time>
      </trkpt>
      <trkpt lat="43.73357" lon="6.1332">
        <ele>637.5</ele>
      </trkpt>
      <trkpt lat="43.73361" lon="6.13317">
        <ele>636.9</ele>
        <time>2022-03-28T13:11:56Z</time>
      </trkpt>
      <trkpt lat="43.73369" lon="6.13313">
        <ele>634.7</ele>
        <time>2022-03-28T13:12:10Z</time>
      </trkpt>
      <trkpt lat="43.73375" lon="6.13305">
        <ele>633.6</ele>
        <time>2022-03-28T13:12:22Z</time>
      </trkpt>
      <trkpt lat="43.73381" lon="6.13293">
        <ele>631.9</ele>
        <time>2022-03-28T13:12:33Z</time>
      </trkpt>
      <trkpt lat="43.73387" lon="6.13279">
        <ele>629.9</ele>
        <time>2022-03-28T13:12:45Z</time>
      </trkpt>
      <trkpt lat="43.73391" lon="6.13267">
        <ele>626.7</ele>
        <time>2022-03-28T13:12:58Z</time>
      </trkpt>
      <trkpt lat="43.73394" lon="6.13252">
        <ele>624.5</ele>
        <time>2022-03-28T13:13:12Z</time>
      </trkpt>
      <trkpt lat="43.73395" lon="6.13236">
        <ele>622.4</ele>
        <time>2022-03-28T13:13:26Z</time>
      </trkpt>
      <trkpt lat="43.73392" lon="6.1322">
        <ele>621.6</ele>
        <time>2022-03-28T13:13:39Z</time>
      </trkpt>
      <trkpt lat="43.73386" lon="6.13207">
        <ele>621.9</ele>
        <time>2022-03-28T13:13:52Z</time>
      </trkpt>
      <trkpt lat="43.7338" lon="6.13195">
        <ele>622.2</ele>
        <time>2022-03-28T13:15:34Z</time>
      </trkpt>
      <trkpt lat="43.73377" lon="6.13181">
        <ele>620.8</ele>
        <time>2022-03-28T13:15:45Z</time>
      </trkpt>
      <trkpt lat="43.73372" lon="6.13168">
        <ele>619.6</ele>
        <time>2022-03-28T13:15:56Z</time>
      </trkpt>
      <trkpt lat="43.73368" lon="6.13155">
        <ele>618</ele>
        <time>2022-03-28T13:16:06Z</time>
      </trkpt>
      <trkpt lat="43.73366" lon="6.13142">
        <ele>615.4</ele>
        <time>2022-03-28T13:16:17Z</time>
      </trkpt>
      <trkpt lat="43.73365" lon="6.13131">
        <ele>612.8</ele>
        <time>2022-03-28T13:16:32Z</time>
      </trkpt>
      <trkpt lat="43.73355" lon="6.13119">
        <ele>612.8</ele>
        <time>2022-03-28T13:16:46Z</time>
      </trkpt>
      <trkpt lat="43.73347" lon="6.13109">
        <ele>613.1</ele>
        <time>2022-03-28T13:16:58Z</time>
      </trkpt>
      <trkpt lat="43.73338" lon="6.13097">
        <ele>612.9</ele>
        <time>2022-03-28T13:17:11Z</time>
      </trkpt>
      <trkpt lat="43.73323" lon="6.13083">
        <ele>612.8</ele>
        <time>2022-03-28T13:17:21Z</time>
      </trkpt>
      <trkpt lat="43.73312" lon="6.13073">
        <ele>612.4</ele>
        <time>2022-03-28T13:17:32Z</time>
      </trkpt>
      <trkpt lat="43.73306" lon="6.13067">
        <ele>612.3</ele>
        <time>2022-03-28T13:17:42Z</time>
      </trkpt>
      <trkpt lat="43.73295" lon="6.13063">
        <ele>613.3</ele>
        <time>2022-03-28T13:17:52Z</time>
      </trkpt>
      <trkpt lat="43.73281" lon="6.1306">
        <ele>614.5</ele>
        <time>2022-03-28T13:18:05Z</time>
      </trkpt>
      <trkpt lat="43.73273" lon="6.13052">
        <ele>613.5</ele>
        <time>2022-03-28T13:18:16Z</time>
      </trkpt>
      <trkpt lat="43.73266" lon="6.13042">
        <ele>611.3</ele>
        <time>2022-03-28T13:18:25Z</time>
      </trkpt>
      <trkpt lat="43.73257" lon="6.13036">
        <ele>610.6</ele>
        <time>2022-03-28T13:18:38Z</time>
      </trkpt>
      <trkpt lat="43.73244" lon="6.1303">
        <ele>610.6</ele>
        <time>2022-03-28T13:18:50Z</time>
      </trkpt>
      <trkpt lat="43.73232" lon="6.13029">
        <ele>612.1</ele>
        <time>2022-03-28T13:19:00Z</time>
      </trkpt>
      <trkpt lat="43.73223" lon="6.13025">
        <ele>612</ele>
        <time>2022-03-28T13:19:11Z</time>
      </trkpt>
      <trkpt lat="43.73212" lon="6.13018">
        <ele>611.5</ele>
        <time>2022-03-28T13:19:21Z</time>
      </trkpt>
      <trkpt lat="43.73201" lon="6.13015">
        <ele>612.1</ele>
        <time>2022-03-28T13:19:31Z</time>
      </trkpt>
      <trkpt lat="43.7319" lon="6.13011">
        <ele>611.9</ele>
        <time>2022-03-28T13:19:41Z</time>
      </trkpt>
      <trkpt lat="43.73181" lon="6.13007">
        <ele>611.6</ele>
        <time>2022-03-28T13:19:50Z</time>
      </trkpt>
      <trkpt lat="43.73171" lon="6.13004">
        <ele>611.9</ele>
        <time>2022-03-28T13:19:59Z</time>
      </trkpt>
      <trkpt lat="43.73161" lon="6.13002">
        <ele>612.3</ele>
        <time>2022-03-28T13:20:10Z</time>
      </trkpt>
      <trkpt lat="43.73151" lon="6.12996">
        <ele>611.6</ele>
        <time>2022-03-28T13:20:21Z</time>
      </trkpt>
      <trkpt lat="43.73143" lon="6.12985">
        <ele>609.2</ele>
        <time>2022-03-28T13:20:34Z</time>
      </trkpt>
      <trkpt lat="43.73136" lon="6.12973">
        <ele>606.4</ele>
        <time>2022-03-28T13:20:45Z</time>
      </trkpt>
      <trkpt lat="43.73129" lon="6.12964">
        <ele>604.3</ele>
        <time>2022-03-28T13:20:55Z</time>
      </trkpt>
      <trkpt lat="43.73124" lon="6.12953">
        <ele>601.5</ele>
        <time>2022-03-28T13:21:05Z</time>
      </trkpt>
      <trkpt lat="43.73115" lon="6.12948">
        <ele>600.8</ele>
        <time>2022-03-28T13:21:15Z</time>
      </trkpt>
      <trkpt lat="43.73109" lon="6.12939">
        <ele>598.9</ele>
        <time>2022-03-28T13:21:26Z</time>
      </trkpt>
      <trkpt lat="43.73103" lon="6.1293">
        <ele>597.2</ele>
        <time>2022-03-28T13:21:37Z</time>
      </trkpt>
      <trkpt lat="43.73095" lon="6.12917">
        <ele>594.3</ele>
        <time>2022-03-28T13:21:47Z</time>
      </trkpt>
      <trkpt lat="43.7309" lon="6.12908">
        <ele>592.1</ele>
        <time>2022-03-28T13:21:56Z</time>
      </trkpt>
      <trkpt lat="43.73081" lon="6.12906">
        <ele>592</ele>
        <time>2022-03-28T13:22:06Z</time>
      </trkpt>
      <trkpt lat="43.73073" lon="6.12904">
        <ele>592.7</ele>
        <time>2022-03-28T13:22:15Z</time>
      </trkpt>
      <trkpt lat="43.73066" lon="6.12897">
        <ele>591.7</ele>
        <time>2022-03-28T13:22:23Z</time>
      </trkpt>
      <trkpt lat="43.73059" lon="6.1289">
        <ele>590.8</ele>
        <time>2022-03-28T13:22:33Z</time>
      </trkpt>
      <trkpt lat="43.73049" lon="6.12879">
        <ele>588.8</ele>
        <time>2022-03-28T13:22:44Z</time>
      </trkpt>
      <trkpt lat="43.73041" lon="6.12871">
        <ele>587.3</ele>
        <time>2022-03-28T13:22:54Z</time>
      </trkpt>
      <trkpt lat="43.73032" lon="6.12868">
        <ele>587.4</ele>
        <time>2022-03-28T13:23:03Z</time>
      </trkpt>
      <trkpt lat="43.73021" lon="6.12864">
        <ele>587.1</ele>
        <time>2022-03-28T13:23:14Z</time>
      </trkpt>
      <trkpt lat="43.73006" lon="6.12857">
        <ele>586.7</ele>
        <time>2022-03-28T13:23:26Z</time>
      </trkpt>
      <trkpt lat="43.72996" lon="6.12851">
        <ele>585.8</ele>
        <time>2022-03-28T13:23:36Z</time>
      </trkpt>
      <trkpt lat="43.72984" lon="6.12849">
        <ele>585.3</ele>
        <time>2022-03-28T13:23:46Z</time>
      </trkpt>
      <trkpt lat="43.72974" lon="6.12851">
        <ele>585.8</ele>
        <time>2022-03-28T13:23:55Z</time>
      </trkpt>
      <trkpt lat="43.72963" lon="6.12852">
        <ele>585.9</ele>
        <time>2022-03-28T13:24:04Z</time>
      </trkpt>
      <trkpt lat="43.7295" lon="6.12852">
        <ele>585.7</ele>
        <time>2022-03-28T13:24:14Z</time>
      </trkpt>
      <trkpt lat="43.72944" lon="6.12847">
        <ele>585.1</ele>
        <time>2022-03-28T13:24:24Z</time>
      </trkpt>
      <trkpt lat="43.72936" lon="6.12839">
        <ele>584.4</ele>
        <time>2022-03-28T13:24:35Z</time>
      </trkpt>
      <trkpt lat="43.72924" lon="6.12832">
        <ele>584.3</ele>
        <time>2022-03-28T13:24:47Z</time>
      </trkpt>
      <trkpt lat="43.72911" lon="6.12826">
        <ele>584.3</ele>
        <time>2022-03-28T13:24:57Z</time>
      </trkpt>
      <trkpt lat="43.72901" lon="6.12822">
        <ele>584.5</ele>
        <time>2022-03-28T13:25:07Z</time>
      </trkpt>
      <trkpt lat="43.72889" lon="6.12815">
        <ele>584.3</ele>
        <time>2022-03-28T13:25:17Z</time>
      </trkpt>
      <trkpt lat="43.72878" lon="6.12807">
        <ele>584</ele>
        <time>2022-03-28T13:25:27Z</time>
      </trkpt>
      <trkpt lat="43.72869" lon="6.12801">
        <ele>583.9</ele>
        <time>2022-03-28T13:25:36Z</time>
      </trkpt>
      <trkpt lat="43.7286" lon="6.12795">
        <ele>583.9</ele>
        <time>2022-03-28T13:25:47Z</time>
      </trkpt>
      <trkpt lat="43.72858" lon="6.12784">
        <ele>582.8</ele>
        <time>2022-03-28T13:25:59Z</time>
      </trkpt>
      <trkpt lat="43.72859" lon="6.12768">
        <ele>581.1</ele>
        <time>2022-03-28T13:26:11Z</time>
      </trkpt>
      <trkpt lat="43.72857" lon="6.12753">
        <ele>579.6</ele>
        <time>2022-03-28T13:26:24Z</time>
      </trkpt>
      <trkpt lat="43.72868" lon="6.1274">
        <ele>578</ele>
        <time>2022-03-28T13:26:35Z</time>
      </trkpt>
      <trkpt lat="43.72874" lon="6.12727">
        <ele>576.9</ele>
        <time>2022-03-28T13:26:46Z</time>
      </trkpt>
      <trkpt lat="43.7287" lon="6.12708">
        <ele>576.4</ele>
        <time>2022-03-28T13:27:01Z</time>
      </trkpt>
      <trkpt lat="43.72866" lon="6.12692">
        <ele>576.2</ele>
        <time>2022-03-28T13:27:20Z</time>
      </trkpt>
      <trkpt lat="43.72858" lon="6.12689">
        <ele>576.9</ele>
        <time>2022-03-28T13:29:42Z</time>
      </trkpt>
      <trkpt lat="43.72854" lon="6.12672">
        <ele>576.5</ele>
        <time>2022-03-28T13:29:54Z</time>
      </trkpt>
      <trkpt lat="43.72857" lon="6.12659">
        <ele>575.9</ele>
        <time>2022-03-28T13:30:05Z</time>
      </trkpt>
      <trkpt lat="43.72857" lon="6.12651">
        <ele>575.7</ele>
        <time>2022-03-28T13:30:44Z</time>
      </trkpt>
      <trkpt lat="43.72861" lon="6.12655">
        <ele>575.6</ele>
        <time>2022-03-28T13:31:26Z</time>
      </trkpt>
      <trkpt lat="43.72861" lon="6.12649">
        <ele>575.4</ele>
        <time>2022-03-28T13:32:27Z</time>
      </trkpt>
      <trkpt lat="43.72857" lon="6.12634">
        <ele>575.6</ele>
        <time>2022-03-28T13:32:44Z</time>
      </trkpt>
      <trkpt lat="43.72866" lon="6.12634">
        <ele>575.2</ele>
        <time>2022-03-28T13:33:06Z</time>
      </trkpt>
      <trkpt lat="43.72871" lon="6.12647">
        <ele>574.7</ele>
        <time>2022-03-28T13:33:22Z</time>
      </trkpt>
      <trkpt lat="43.72869" lon="6.1264">
        <ele>574.7</ele>
        <time>2022-03-28T13:33:47Z</time>
      </trkpt>
      <trkpt lat="43.72867" lon="6.12643">
        <ele>574.9</ele>
        <time>2022-03-28T13:34:13Z</time>
      </trkpt>
      <trkpt lat="43.72865" lon="6.12641">
        <ele>574.9</ele>
        <time>2022-03-28T13:34:37Z</time>
      </trkpt>
      <trkpt lat="43.7287" lon="6.12646">
        <ele>574.8</ele>
        <time>2022-03-28T13:34:59Z</time>
      </trkpt>
      <trkpt lat="43.72874" lon="6.12654">
        <ele>574.6</ele>
        <time>2022-03-28T13:35:34Z</time>
      </trkpt>
      <trkpt lat="43.72874" lon="6.12666">
        <ele>574.6</ele>
        <time>2022-03-28T13:36:18Z</time>
      </trkpt>
      <trkpt lat="43.72877" lon="6.12678">
        <ele>574.4</ele>
        <time>2022-03-28T13:36:31Z</time>
      </trkpt>
      <trkpt lat="43.72884" lon="6.12687">
        <ele>573.6</ele>
        <time>2022-03-28T13:36:44Z</time>
      </trkpt>
      <trkpt lat="43.72894" lon="6.12688">
        <ele>572.4</ele>
        <time>2022-03-28T13:36:57Z</time>
      </trkpt>
      <trkpt lat="43.72902" lon="6.12688">
        <ele>571.3</ele>
        <time>2022-03-28T13:37:08Z</time>
      </trkpt>
      <trkpt lat="43.72911" lon="6.12686">
        <ele>570.3</ele>
        <time>2022-03-28T13:37:21Z</time>
      </trkpt>
      <trkpt lat="43.72919" lon="6.12693">
        <ele>568.9</ele>
        <time>2022-03-28T13:37:31Z</time>
      </trkpt>
      <trkpt lat="43.72925" lon="6.12703">
        <ele>569.2</ele>
        <time>2022-03-28T13:37:42Z</time>
      </trkpt>
      <trkpt lat="43.72935" lon="6.1271">
        <ele>568.6</ele>
        <time>2022-03-28T13:37:53Z</time>
      </trkpt>
      <trkpt lat="43.72944" lon="6.12718">
        <ele>567.9</ele>
        <time>2022-03-28T13:38:04Z</time>
      </trkpt>
      <trkpt lat="43.72954" lon="6.12713">
        <ele>567.2</ele>
        <time>2022-03-28T13:38:15Z</time>
      </trkpt>
      <trkpt lat="43.72965" lon="6.12712">
        <ele>566.7</ele>
        <time>2022-03-28T13:38:26Z</time>
      </trkpt>
      <trkpt lat="43.72974" lon="6.12713">
        <ele>566.2</ele>
        <time>2022-03-28T13:38:36Z</time>
      </trkpt>
      <trkpt lat="43.72984" lon="6.12717">
        <ele>565.1</ele>
        <time>2022-03-28T13:38:46Z</time>
      </trkpt>
      <trkpt lat="43.72996" lon="6.12717">
        <ele>563.9</ele>
        <time>2022-03-28T13:38:56Z</time>
      </trkpt>
      <trkpt lat="43.73007" lon="6.1272">
        <ele>562.7</ele>
        <time>2022-03-28T13:39:05Z</time>
      </trkpt>
      <trkpt lat="43.73016" lon="6.12725">
        <ele>562.2</ele>
        <time>2022-03-28T13:39:14Z</time>
      </trkpt>
      <trkpt lat="43.73026" lon="6.12725">
        <ele>561.5</ele>
        <time>2022-03-28T13:39:24Z</time>
      </trkpt>
      <trkpt lat="43.73037" lon="6.12729">
        <ele>561.3</ele>
        <time>2022-03-28T13:39:33Z</time>
      </trkpt>
      <trkpt lat="43.73046" lon="6.12734">
        <ele>561.3</ele>
        <time>2022-03-28T13:39:43Z</time>
      </trkpt>
      <trkpt lat="43.73058" lon="6.12736">
        <ele>560.8</ele>
        <time>2022-03-28T13:39:52Z</time>
      </trkpt>
      <trkpt lat="43.73066" lon="6.12737">
        <ele>560.5</ele>
        <time>2022-03-28T13:40:00Z</time>
      </trkpt>
      <trkpt lat="43.73076" lon="6.12733">
        <ele>559.6</ele>
        <time>2022-03-28T13:40:09Z</time>
      </trkpt>
      <trkpt lat="43.73085" lon="6.12728">
        <ele>558.5</ele>
        <time>2022-03-28T13:40:18Z</time>
      </trkpt>
      <trkpt lat="43.73094" lon="6.12722">
        <ele>557.3</ele>
        <time>2022-03-28T13:40:26Z</time>
      </trkpt>
      <trkpt lat="43.73103" lon="6.12721">
        <ele>556.7</ele>
        <time>2022-03-28T13:40:34Z</time>
      </trkpt>
      <trkpt lat="43.73112" lon="6.12723">
        <ele>556.2</ele>
        <time>2022-03-28T13:40:43Z</time>
      </trkpt>
      <trkpt lat="43.73122" lon="6.12722">
        <ele>555.7</ele>
        <time>2022-03-28T13:40:52Z</time>
      </trkpt>
      <trkpt lat="43.73132" lon="6.12728">
        <ele>555.9</ele>
        <time>2022-03-28T13:41:03Z</time>
      </trkpt>
      <trkpt lat="43.73139" lon="6.12731">
        <ele>555.9</ele>
        <time>2022-03-28T13:41:28Z</time>
      </trkpt>
      <trkpt lat="43.7315" lon="6.12744">
        <ele>556.3</ele>
        <time>2022-03-28T13:41:40Z</time>
      </trkpt>
      <trkpt lat="43.7316" lon="6.12751">
        <ele>556.7</ele>
        <time>2022-03-28T13:41:49Z</time>
      </trkpt>
      <trkpt lat="43.7317" lon="6.12756">
        <ele>556.3</ele>
        <time>2022-03-28T13:41:59Z</time>
      </trkpt>
      <trkpt lat="43.7318" lon="6.1276">
        <ele>555.8</ele>
        <time>2022-03-28T13:42:08Z</time>
      </trkpt>
      <trkpt lat="43.73189" lon="6.12763">
        <ele>555.4</ele>
        <time>2022-03-28T13:42:17Z</time>
      </trkpt>
      <trkpt lat="43.73202" lon="6.12766">
        <ele>554.8</ele>
        <time>2022-03-28T13:42:27Z</time>
      </trkpt>
      <trkpt lat="43.73213" lon="6.12767">
        <ele>554</ele>
        <time>2022-03-28T13:42:35Z</time>
      </trkpt>
      <trkpt lat="43.73219" lon="6.1277">
        <ele>553.9</ele>
        <time>2022-03-28T13:42:44Z</time>
      </trkpt>
      <trkpt lat="43.73232" lon="6.12773">
        <ele>553.4</ele>
        <time>2022-03-28T13:42:52Z</time>
      </trkpt>
      <trkpt lat="43.7324" lon="6.12781">
        <ele>554.2</ele>
        <time>2022-03-28T13:43:02Z</time>
      </trkpt>
      <trkpt lat="43.73253" lon="6.12789">
        <ele>554.1</ele>
        <time>2022-03-28T13:43:11Z</time>
      </trkpt>
      <trkpt lat="43.73266" lon="6.12795">
        <ele>553.6</ele>
        <time>2022-03-28T13:43:23Z</time>
      </trkpt>
      <trkpt lat="43.73275" lon="6.12797">
        <ele>553.1</ele>
        <time>2022-03-28T13:43:32Z</time>
      </trkpt>
      <trkpt lat="43.73284" lon="6.12805">
        <ele>554.1</ele>
        <time>2022-03-28T13:43:41Z</time>
      </trkpt>
      <trkpt lat="43.73293" lon="6.12811">
        <ele>553.8</ele>
        <time>2022-03-28T13:43:50Z</time>
      </trkpt>
      <trkpt lat="43.73303" lon="6.12811">
        <ele>552.4</ele>
        <time>2022-03-28T13:43:59Z</time>
      </trkpt>
      <trkpt lat="43.7331" lon="6.12805">
        <ele>550.3</ele>
        <time>2022-03-28T13:44:09Z</time>
      </trkpt>
      <trkpt lat="43.73319" lon="6.12797">
        <ele>547.8</ele>
        <time>2022-03-28T13:44:19Z</time>
      </trkpt>
      <trkpt lat="43.73327" lon="6.12794">
        <ele>546.4</ele>
        <time>2022-03-28T13:44:29Z</time>
      </trkpt>
      <trkpt lat="43.73334" lon="6.12794">
        <ele>545.9</ele>
        <time>2022-03-28T13:44:39Z</time>
      </trkpt>
      <trkpt lat="43.73343" lon="6.12805">
        <ele>546.8</ele>
        <time>2022-03-28T13:44:48Z</time>
      </trkpt>
      <trkpt lat="43.73352" lon="6.12811">
        <ele>546.7</ele>
        <time>2022-03-28T13:44:57Z</time>
      </trkpt>
      <trkpt lat="43.73362" lon="6.12811">
        <ele>545.4</ele>
        <time>2022-03-28T13:45:06Z</time>
      </trkpt>
      <trkpt lat="43.73371" lon="6.1281">
        <ele>543.7</ele>
        <time>2022-03-28T13:45:22Z</time>
      </trkpt>
      <trkpt lat="43.73381" lon="6.12814">
        <ele>542.2</ele>
        <time>2022-03-28T13:45:37Z</time>
      </trkpt>
      <trkpt lat="43.73388" lon="6.12819">
        <ele>541.6</ele>
        <time>2022-03-28T13:45:50Z</time>
      </trkpt>
      <trkpt lat="43.73397" lon="6.12822">
        <ele>540</ele>
        <time>2022-03-28T13:46:04Z</time>
      </trkpt>
      <trkpt lat="43.73409" lon="6.12821">
        <ele>537.6</ele>
        <time>2022-03-28T13:46:17Z</time>
      </trkpt>
      <trkpt lat="43.73419" lon="6.1282">
        <ele>535.7</ele>
        <time>2022-03-28T13:46:33Z</time>
      </trkpt>
      <trkpt lat="43.73426" lon="6.12807">
        <ele>534.9</ele>
        <time>2022-03-28T13:46:47Z</time>
      </trkpt>
      <trkpt lat="43.73432" lon="6.12799">
        <ele>533.2</ele>
        <time>2022-03-28T13:47:00Z</time>
      </trkpt>
      <trkpt lat="43.73438" lon="6.12788">
        <ele>530.9</ele>
        <time>2022-03-28T13:47:13Z</time>
      </trkpt>
      <trkpt lat="43.73444" lon="6.12784">
        <ele>529.9</ele>
        <time>2022-03-28T13:47:25Z</time>
      </trkpt>
      <trkpt lat="43.73453" lon="6.12788">
        <ele>530.5</ele>
        <time>2022-03-28T13:47:39Z</time>
      </trkpt>
      <trkpt lat="43.73464" lon="6.12784">
        <ele>530.5</ele>
        <time>2022-03-28T13:47:50Z</time>
      </trkpt>
      <trkpt lat="43.73469" lon="6.12779">
        <ele>530.7</ele>
      </trkpt>
      <trkpt lat="43.73472" lon="6.12776">
        <ele>530.7</ele>
      </trkpt>
      <trkpt lat="43.73475" lon="6.12776">
        <ele>530.6</ele>
        <time>2022-03-28T13:48:01Z</time>
      </trkpt>
      <trkpt lat="43.73479" lon="6.12776">
        <ele>530.5</ele>
      </trkpt>
      <trkpt lat="43.73482" lon="6.12776">
        <ele>530.5</ele>
        <time>2022-03-28T13:48:14Z</time>
      </trkpt>
      <trkpt lat="43.73485" lon="6.1278">
        <ele>530.4</ele>
        <time>2022-03-28T13:49:03Z</time>
      </trkpt>
      <trkpt lat="43.73487" lon="6.12772">
        <ele>529.9</ele>
        <time>2022-03-28T13:50:13Z</time>
      </trkpt>
      <trkpt lat="43.73488" lon="6.12768">
        <ele>529.5</ele>
        <time>2022-03-28T13:51:06Z</time>
      </trkpt>
      <trkpt lat="43.73488" lon="6.12781">
        <ele>530.2</ele>
        <time>2022-03-28T13:51:32Z</time>
      </trkpt>
      <trkpt lat="43.73491" lon="6.12794">
        <ele>528.9</ele>
        <time>2022-03-28T13:51:46Z</time>
      </trkpt>
      <trkpt lat="43.73499" lon="6.12802">
        <ele>527.5</ele>
        <time>2022-03-28T13:52:01Z</time>
      </trkpt>
      <trkpt lat="43.7351" lon="6.12801">
        <ele>526.4</ele>
        <time>2022-03-28T13:52:14Z</time>
      </trkpt>
      <trkpt lat="43.73519" lon="6.12801">
        <ele>525.3</ele>
        <time>2022-03-28T13:52:26Z</time>
      </trkpt>
      <trkpt lat="43.73529" lon="6.12802">
        <ele>524.1</ele>
        <time>2022-03-28T13:52:37Z</time>
      </trkpt>
      <trkpt lat="43.73539" lon="6.12802">
        <ele>522.5</ele>
        <time>2022-03-28T13:52:48Z</time>
      </trkpt>
      <trkpt lat="43.73548" lon="6.12802">
        <ele>521.3</ele>
        <time>2022-03-28T13:52:59Z</time>
      </trkpt>
      <trkpt lat="43.73559" lon="6.12803">
        <ele>519.4</ele>
        <time>2022-03-28T13:53:11Z</time>
      </trkpt>
      <trkpt lat="43.73567" lon="6.12797">
        <ele>517.7</ele>
        <time>2022-03-28T13:53:23Z</time>
      </trkpt>
      <trkpt lat="43.73576" lon="6.12793">
        <ele>515.5</ele>
        <time>2022-03-28T13:53:36Z</time>
      </trkpt>
      <trkpt lat="43.73576" lon="6.12809">
        <ele>514.6</ele>
        <time>2022-03-28T13:53:52Z</time>
      </trkpt>
      <trkpt lat="43.73576" lon="6.12819">
        <ele>511.8</ele>
        <time>2022-03-28T13:54:10Z</time>
      </trkpt>
      <trkpt lat="43.73574" lon="6.12819">
        <ele>512.3</ele>
        <time>2022-03-28T13:55:52Z</time>
      </trkpt>
      <trkpt lat="43.73576" lon="6.12819">
        <ele>511.8</ele>
        <time>2022-03-28T13:57:14Z</time>
      </trkpt>
      <trkpt lat="43.73576" lon="6.12811">
        <ele>514</ele>
        <time>2022-03-28T13:58:12Z</time>
      </trkpt>
      <trkpt lat="43.73577" lon="6.12798">
        <ele>515.2</ele>
        <time>2022-03-28T13:58:31Z</time>
      </trkpt>
      <trkpt lat="43.73579" lon="6.12786">
        <ele>514.4</ele>
        <time>2022-03-28T13:58:46Z</time>
      </trkpt>
      <trkpt lat="43.73578" lon="6.12769">
        <ele>512.9</ele>
        <time>2022-03-28T13:58:59Z</time>
      </trkpt>
      <trkpt lat="43.73571" lon="6.12755">
        <ele>512.9</ele>
        <time>2022-03-28T13:59:11Z</time>
      </trkpt>
      <trkpt lat="43.73565" lon="6.12741">
        <ele>512.1</ele>
        <time>2022-03-28T13:59:24Z</time>
      </trkpt>
      <trkpt lat="43.73555" lon="6.12725">
        <ele>512.9</ele>
        <time>2022-03-28T13:59:37Z</time>
      </trkpt>
      <trkpt lat="43.73546" lon="6.12712">
        <ele>513.6</ele>
        <time>2022-03-28T13:59:47Z</time>
      </trkpt>
      <trkpt lat="43.7354" lon="6.12699">
        <ele>513.1</ele>
        <time>2022-03-28T13:59:56Z</time>
      </trkpt>
      <trkpt lat="43.73532" lon="6.12691">
        <ele>514.1</ele>
        <time>2022-03-28T14:00:05Z</time>
      </trkpt>
      <trkpt lat="43.7352" lon="6.1268">
        <ele>514.1</ele>
        <time>2022-03-28T14:00:16Z</time>
      </trkpt>
      <trkpt lat="43.73521" lon="6.12665">
        <ele>512.7</ele>
        <time>2022-03-28T14:00:31Z</time>
      </trkpt>
      <trkpt lat="43.73527" lon="6.12653">
        <ele>514.6</ele>
        <time>2022-03-28T14:00:49Z</time>
      </trkpt>
      <trkpt lat="43.73523" lon="6.12644">
        <ele>518.6</ele>
        <time>2022-03-28T14:01:03Z</time>
      </trkpt>
      <trkpt lat="43.73518" lon="6.12636">
        <ele>522.1</ele>
        <time>2022-03-28T14:01:16Z</time>
      </trkpt>
      <trkpt lat="43.73515" lon="6.12626">
        <ele>525.4</ele>
        <time>2022-03-28T14:01:29Z</time>
      </trkpt>
      <trkpt lat="43.73515" lon="6.12614">
        <ele>528.8</ele>
        <time>2022-03-28T14:01:44Z</time>
      </trkpt>
      <trkpt lat="43.73513" lon="6.12605">
        <ele>530.8</ele>
        <time>2022-03-28T14:02:02Z</time>
      </trkpt>
      <trkpt lat="43.73506" lon="6.12596">
        <ele>531.6</ele>
        <time>2022-03-28T14:02:21Z</time>
      </trkpt>
      <trkpt lat="43.735" lon="6.12587">
        <ele>531.7</ele>
        <time>2022-03-28T14:02:40Z</time>
      </trkpt>
      <trkpt lat="43.73497" lon="6.12572">
        <ele>535.7</ele>
        <time>2022-03-28T14:02:59Z</time>
      </trkpt>
      <trkpt lat="43.73488" lon="6.12562">
        <ele>540.1</ele>
        <time>2022-03-28T14:03:16Z</time>
      </trkpt>
      <trkpt lat="43.73487" lon="6.12553">
        <ele>541.8</ele>
        <time>2022-03-28T14:03:52Z</time>
      </trkpt>
      <trkpt lat="43.73494" lon="6.12541">
        <ele>542.7</ele>
        <time>2022-03-28T14:04:12Z</time>
      </trkpt>
      <trkpt lat="43.73497" lon="6.12537">
        <ele>543.2</ele>
        <time>2022-03-28T14:04:29Z</time>
      </trkpt>
      <trkpt lat="43.73505" lon="6.12532">
        <ele>545.3</ele>
        <time>2022-03-28T14:04:50Z</time>
      </trkpt>
      <trkpt lat="43.7351" lon="6.12525">
        <ele>548</ele>
        <time>2022-03-28T14:05:10Z</time>
      </trkpt>
      <trkpt lat="43.73518" lon="6.12537">
        <ele>547.6</ele>
        <time>2022-03-28T14:05:22Z</time>
      </trkpt>
      <trkpt lat="43.73524" lon="6.12544">
        <ele>547.3</ele>
        <time>2022-03-28T14:05:35Z</time>
      </trkpt>
      <trkpt lat="43.73532" lon="6.12545">
        <ele>549</ele>
        <time>2022-03-28T14:05:51Z</time>
      </trkpt>
      <trkpt lat="43.73542" lon="6.12541">
        <ele>551.2</ele>
        <time>2022-03-28T14:06:07Z</time>
      </trkpt>
      <trkpt lat="43.73552" lon="6.12541">
        <ele>552.5</ele>
        <time>2022-03-28T14:06:19Z</time>
      </trkpt>
      <trkpt lat="43.73562" lon="6.12541">
        <ele>553.3</ele>
        <time>2022-03-28T14:06:30Z</time>
      </trkpt>
      <trkpt lat="43.73568" lon="6.12538">
        <ele>553.7</ele>
        <time>2022-03-28T14:06:54Z</time>
      </trkpt>
      <trkpt lat="43.7357" lon="6.12542">
        <ele>553.5</ele>
        <time>2022-03-28T14:08:09Z</time>
      </trkpt>
      <trkpt lat="43.73569" lon="6.12544">
        <ele>553.3</ele>
        <time>2022-03-28T14:08:52Z</time>
      </trkpt>
      <trkpt lat="43.73574" lon="6.12557">
        <ele>552.4</ele>
        <time>2022-03-28T14:09:02Z</time>
      </trkpt>
      <trkpt lat="43.73581" lon="6.12567">
        <ele>551.9</ele>
        <time>2022-03-28T14:09:11Z</time>
      </trkpt>
      <trkpt lat="43.73588" lon="6.12574">
        <ele>551.5</ele>
        <time>2022-03-28T14:09:18Z</time>
      </trkpt>
      <trkpt lat="43.73595" lon="6.12579">
        <ele>550.8</ele>
        <time>2022-03-28T14:09:25Z</time>
      </trkpt>
      <trkpt lat="43.73603" lon="6.12583">
        <ele>550.3</ele>
        <time>2022-03-28T14:09:32Z</time>
      </trkpt>
      <trkpt lat="43.7361" lon="6.12588">
        <ele>549.1</ele>
        <time>2022-03-28T14:09:39Z</time>
      </trkpt>
      <trkpt lat="43.73617" lon="6.12596">
        <ele>547.6</ele>
        <time>2022-03-28T14:09:48Z</time>
      </trkpt>
      <trkpt lat="43.73626" lon="6.126">
        <ele>546.5</ele>
        <time>2022-03-28T14:09:57Z</time>
      </trkpt>
      <trkpt lat="43.73635" lon="6.12599">
        <ele>546.4</ele>
        <time>2022-03-28T14:10:06Z</time>
      </trkpt>
      <trkpt lat="43.73645" lon="6.126">
        <ele>545.3</ele>
        <time>2022-03-28T14:10:15Z</time>
      </trkpt>
      <trkpt lat="43.73654" lon="6.12605">
        <ele>543.6</ele>
        <time>2022-03-28T14:10:26Z</time>
      </trkpt>
      <trkpt lat="43.73665" lon="6.12604">
        <ele>542</ele>
        <time>2022-03-28T14:10:38Z</time>
      </trkpt>
      <trkpt lat="43.73675" lon="6.12602">
        <ele>540.1</ele>
        <time>2022-03-28T14:10:49Z</time>
      </trkpt>
      <trkpt lat="43.73685" lon="6.12596">
        <ele>538.6</ele>
        <time>2022-03-28T14:11:00Z</time>
      </trkpt>
      <trkpt lat="43.73694" lon="6.12592">
        <ele>537.1</ele>
        <time>2022-03-28T14:11:10Z</time>
      </trkpt>
      <trkpt lat="43.73702" lon="6.12582">
        <ele>535.8</ele>
        <time>2022-03-28T14:11:20Z</time>
      </trkpt>
      <trkpt lat="43.73709" lon="6.12572">
        <ele>534.2</ele>
        <time>2022-03-28T14:11:31Z</time>
      </trkpt>
      <trkpt lat="43.73717" lon="6.12562">
        <ele>532.5</ele>
        <time>2022-03-28T14:11:42Z</time>
      </trkpt>
      <trkpt lat="43.73722" lon="6.12546">
        <ele>531.5</ele>
        <time>2022-03-28T14:11:51Z</time>
      </trkpt>
      <trkpt lat="43.73725" lon="6.12534">
        <ele>529.3</ele>
        <time>2022-03-28T14:12:03Z</time>
      </trkpt>
      <trkpt lat="43.73731" lon="6.12522">
        <ele>525.3</ele>
        <time>2022-03-28T14:12:15Z</time>
      </trkpt>
      <trkpt lat="43.73734" lon="6.12505">
        <ele>523.6</ele>
        <time>2022-03-28T14:12:26Z</time>
      </trkpt>
      <trkpt lat="43.73732" lon="6.12487">
        <ele>524.1</ele>
        <time>2022-03-28T14:12:38Z</time>
      </trkpt>
      <trkpt lat="43.7373" lon="6.12469">
        <ele>524.4</ele>
        <time>2022-03-28T14:12:52Z</time>
      </trkpt>
      <trkpt lat="43.73735" lon="6.12451">
        <ele>521.7</ele>
        <time>2022-03-28T14:13:07Z</time>
      </trkpt>
      <trkpt lat="43.7374" lon="6.12436">
        <ele>519.4</ele>
        <time>2022-03-28T14:13:20Z</time>
      </trkpt>
      <trkpt lat="43.73749" lon="6.12428">
        <ele>515.7</ele>
        <time>2022-03-28T14:13:30Z</time>
      </trkpt>
      <trkpt lat="43.73753" lon="6.12411">
        <ele>515.7</ele>
        <time>2022-03-28T14:13:40Z</time>
      </trkpt>
      <trkpt lat="43.73755" lon="6.12387">
        <ele>519.2</ele>
        <time>2022-03-28T14:13:49Z</time>
      </trkpt>
      <trkpt lat="43.73759" lon="6.12369">
        <ele>519.5</ele>
        <time>2022-03-28T14:14:01Z</time>
      </trkpt>
      <trkpt lat="43.73763" lon="6.12352">
        <ele>518.4</ele>
        <time>2022-03-28T14:14:11Z</time>
      </trkpt>
      <trkpt lat="43.73764" lon="6.12335">
        <ele>518.5</ele>
        <time>2022-03-28T14:14:21Z</time>
      </trkpt>
      <trkpt lat="43.73762" lon="6.12314">
        <ele>519.9</ele>
        <time>2022-03-28T14:14:31Z</time>
      </trkpt>
      <trkpt lat="43.7376" lon="6.123">
        <ele>520.2</ele>
        <time>2022-03-28T14:14:42Z</time>
      </trkpt>
      <trkpt lat="43.73759" lon="6.12283">
        <ele>518.6</ele>
        <time>2022-03-28T14:14:52Z</time>
      </trkpt>
      <trkpt lat="43.73756" lon="6.12265">
        <ele>519.7</ele>
        <time>2022-03-28T14:15:06Z</time>
      </trkpt>
      <trkpt lat="43.73759" lon="6.12247">
        <ele>518.7</ele>
        <time>2022-03-28T14:15:18Z</time>
      </trkpt>
      <trkpt lat="43.73765" lon="6.12228">
        <ele>517</ele>
        <time>2022-03-28T14:15:29Z</time>
      </trkpt>
      <trkpt lat="43.73766" lon="6.12211">
        <ele>516.4</ele>
        <time>2022-03-28T14:15:39Z</time>
      </trkpt>
      <trkpt lat="43.73759" lon="6.12196">
        <ele>516.9</ele>
        <time>2022-03-28T14:15:50Z</time>
      </trkpt>
      <trkpt lat="43.73758" lon="6.1218">
        <ele>518.1</ele>
        <time>2022-03-28T14:16:00Z</time>
      </trkpt>
      <trkpt lat="43.73764" lon="6.12172">
        <ele>518.8</ele>
        <time>2022-03-28T14:16:10Z</time>
      </trkpt>
      <trkpt lat="43.73773" lon="6.12167">
        <ele>519.8</ele>
        <time>2022-03-28T14:16:22Z</time>
      </trkpt>
      <trkpt lat="43.73776" lon="6.12153">
        <ele>522.4</ele>
        <time>2022-03-28T14:16:37Z</time>
      </trkpt>
      <trkpt lat="43.73779" lon="6.1214">
        <ele>524.8</ele>
        <time>2022-03-28T14:16:51Z</time>
      </trkpt>
      <trkpt lat="43.73778" lon="6.12136">
        <ele>525.5</ele>
        <time>2022-03-28T14:19:14Z</time>
      </trkpt>
      <trkpt lat="43.73768" lon="6.12131">
        <ele>526.1</ele>
        <time>2022-03-28T14:19:45Z</time>
      </trkpt>
      <trkpt lat="43.73758" lon="6.12124">
        <ele>527.1</ele>
        <time>2022-03-28T14:19:54Z</time>
      </trkpt>
      <trkpt lat="43.73749" lon="6.12121">
        <ele>527.7</ele>
        <time>2022-03-28T14:20:03Z</time>
      </trkpt>
      <trkpt lat="43.73739" lon="6.12118">
        <ele>528.4</ele>
        <time>2022-03-28T14:20:12Z</time>
      </trkpt>
      <trkpt lat="43.73728" lon="6.12115">
        <ele>529.3</ele>
        <time>2022-03-28T14:20:21Z</time>
      </trkpt>
      <trkpt lat="43.73716" lon="6.12113">
        <ele>529.9</ele>
        <time>2022-03-28T14:20:30Z</time>
      </trkpt>
      <trkpt lat="43.73707" lon="6.12114">
        <ele>529.9</ele>
        <time>2022-03-28T14:20:38Z</time>
      </trkpt>
      <trkpt lat="43.73698" lon="6.12115">
        <ele>530.1</ele>
        <time>2022-03-28T14:20:46Z</time>
      </trkpt>
      <trkpt lat="43.73688" lon="6.12112">
        <ele>530.9</ele>
        <time>2022-03-28T14:20:55Z</time>
      </trkpt>
      <trkpt lat="43.73678" lon="6.12107">
        <ele>531.7</ele>
        <time>2022-03-28T14:21:06Z</time>
      </trkpt>
      <trkpt lat="43.73668" lon="6.12103">
        <ele>532.2</ele>
        <time>2022-03-28T14:21:15Z</time>
      </trkpt>
      <trkpt lat="43.73658" lon="6.12097">
        <ele>533.4</ele>
        <time>2022-03-28T14:21:25Z</time>
      </trkpt>
      <trkpt lat="43.73649" lon="6.12091">
        <ele>534.5</ele>
        <time>2022-03-28T14:21:34Z</time>
      </trkpt>
      <trkpt lat="43.73643" lon="6.12082">
        <ele>536</ele>
        <time>2022-03-28T14:21:43Z</time>
      </trkpt>
      <trkpt lat="43.73636" lon="6.12072">
        <ele>537.7</ele>
        <time>2022-03-28T14:21:53Z</time>
      </trkpt>
      <trkpt lat="43.73628" lon="6.12066">
        <ele>538.8</ele>
        <time>2022-03-28T14:22:03Z</time>
      </trkpt>
      <trkpt lat="43.73618" lon="6.1206">
        <ele>540.1</ele>
        <time>2022-03-28T14:22:13Z</time>
      </trkpt>
      <trkpt lat="43.73609" lon="6.12057">
        <ele>540.9</ele>
        <time>2022-03-28T14:22:22Z</time>
      </trkpt>
      <trkpt lat="43.73599" lon="6.12054">
        <ele>541.6</ele>
        <time>2022-03-28T14:22:32Z</time>
      </trkpt>
      <trkpt lat="43.73589" lon="6.12052">
        <ele>542.2</ele>
        <time>2022-03-28T14:22:42Z</time>
      </trkpt>
      <trkpt lat="43.73578" lon="6.12047">
        <ele>543.3</ele>
        <time>2022-03-28T14:22:54Z</time>
      </trkpt>
      <trkpt lat="43.73568" lon="6.12044">
        <ele>544.4</ele>
        <time>2022-03-28T14:23:04Z</time>
      </trkpt>
      <trkpt lat="43.73557" lon="6.1204">
        <ele>545.5</ele>
        <time>2022-03-28T14:23:15Z</time>
      </trkpt>
      <trkpt lat="43.73547" lon="6.12036">
        <ele>546.7</ele>
        <time>2022-03-28T14:23:25Z</time>
      </trkpt>
      <trkpt lat="43.73538" lon="6.12034">
        <ele>547.6</ele>
        <time>2022-03-28T14:23:35Z</time>
      </trkpt>
      <trkpt lat="43.73527" lon="6.1203">
        <ele>548.8</ele>
        <time>2022-03-28T14:23:45Z</time>
      </trkpt>
      <trkpt lat="43.73519" lon="6.12024">
        <ele>549.9</ele>
        <time>2022-03-28T14:23:55Z</time>
      </trkpt>
      <trkpt lat="43.73509" lon="6.12022">
        <ele>550.8</ele>
        <time>2022-03-28T14:24:05Z</time>
      </trkpt>
      <trkpt lat="43.73499" lon="6.1202">
        <ele>551.7</ele>
        <time>2022-03-28T14:24:15Z</time>
      </trkpt>
      <trkpt lat="43.73489" lon="6.12018">
        <ele>552.7</ele>
        <time>2022-03-28T14:24:25Z</time>
      </trkpt>
      <trkpt lat="43.7348" lon="6.12018">
        <ele>553.6</ele>
        <time>2022-03-28T14:24:34Z</time>
      </trkpt>
      <trkpt lat="43.73471" lon="6.12014">
        <ele>554.6</ele>
        <time>2022-03-28T14:24:44Z</time>
      </trkpt>
      <trkpt lat="43.73463" lon="6.12005">
        <ele>555.5</ele>
        <time>2022-03-28T14:24:55Z</time>
      </trkpt>
      <trkpt lat="43.73454" lon="6.11998">
        <ele>556.3</ele>
        <time>2022-03-28T14:25:05Z</time>
      </trkpt>
      <trkpt lat="43.73445" lon="6.11996">
        <ele>556.9</ele>
        <time>2022-03-28T14:25:15Z</time>
      </trkpt>
      <trkpt lat="43.73437" lon="6.11999">
        <ele>557.5</ele>
        <time>2022-03-28T14:25:24Z</time>
      </trkpt>
      <trkpt lat="43.73429" lon="6.12">
        <ele>558.1</ele>
        <time>2022-03-28T14:25:34Z</time>
      </trkpt>
      <trkpt lat="43.7342" lon="6.11998">
        <ele>558.8</ele>
        <time>2022-03-28T14:25:43Z</time>
      </trkpt>
      <trkpt lat="43.7341" lon="6.11995">
        <ele>559.7</ele>
        <time>2022-03-28T14:25:53Z</time>
      </trkpt>
      <trkpt lat="43.734" lon="6.11988">
        <ele>560.8</ele>
        <time>2022-03-28T14:26:02Z</time>
      </trkpt>
      <trkpt lat="43.73391" lon="6.1198">
        <ele>561.8</ele>
        <time>2022-03-28T14:26:11Z</time>
      </trkpt>
      <trkpt lat="43.73382" lon="6.11974">
        <ele>562.5</ele>
        <time>2022-03-28T14:26:19Z</time>
      </trkpt>
      <trkpt lat="43.73373" lon="6.1197">
        <ele>563.2</ele>
        <time>2022-03-28T14:26:28Z</time>
      </trkpt>
      <trkpt lat="43.7336" lon="6.11966">
        <ele>564.1</ele>
        <time>2022-03-28T14:26:38Z</time>
      </trkpt>
      <trkpt lat="43.73348" lon="6.11964">
        <ele>564.8</ele>
        <time>2022-03-28T14:26:48Z</time>
      </trkpt>
      <trkpt lat="43.73337" lon="6.11961">
        <ele>565.4</ele>
        <time>2022-03-28T14:27:05Z</time>
      </trkpt>
      <trkpt lat="43.73329" lon="6.11956">
        <ele>565.4</ele>
        <time>2022-03-28T14:27:23Z</time>
      </trkpt>
      <trkpt lat="43.73318" lon="6.11941">
        <ele>564.3</ele>
        <time>2022-03-28T14:27:36Z</time>
      </trkpt>
      <trkpt lat="43.73315" lon="6.11914">
        <ele>562.5</ele>
        <time>2022-03-28T14:27:51Z</time>
      </trkpt>
      <trkpt lat="43.73307" lon="6.11894">
        <ele>560.5</ele>
        <time>2022-03-28T14:30:27Z</time>
      </trkpt>
      <trkpt lat="43.73298" lon="6.11903">
        <ele>562</ele>
        <time>2022-03-28T14:30:37Z</time>
      </trkpt>
      <trkpt lat="43.73291" lon="6.11905">
        <ele>562.8</ele>
        <time>2022-03-28T14:30:46Z</time>
      </trkpt>
      <trkpt lat="43.73283" lon="6.11913">
        <ele>563.7</ele>
        <time>2022-03-28T14:30:56Z</time>
      </trkpt>
      <trkpt lat="43.73277" lon="6.11921">
        <ele>564.2</ele>
        <time>2022-03-28T14:31:06Z</time>
      </trkpt>
      <trkpt lat="43.73272" lon="6.11927">
        <ele>565</ele>
        <time>2022-03-28T14:31:15Z</time>
      </trkpt>
      <trkpt lat="43.73267" lon="6.11926">
        <ele>565.7</ele>
        <time>2022-03-28T14:31:24Z</time>
      </trkpt>
      <trkpt lat="43.73263" lon="6.11927">
        <ele>566.1</ele>
        <time>2022-03-28T14:31:34Z</time>
      </trkpt>
      <trkpt lat="43.73258" lon="6.11926">
        <ele>566.7</ele>
        <time>2022-03-28T14:31:49Z</time>
      </trkpt>
      <trkpt lat="43.73254" lon="6.11928">
        <ele>567.1</ele>
        <time>2022-03-28T14:32:02Z</time>
      </trkpt>
      <trkpt lat="43.73252" lon="6.11927">
        <ele>567.4</ele>
        <time>2022-03-28T14:32:38Z</time>
      </trkpt>
      <trkpt lat="43.73253" lon="6.11922">
        <ele>567.4</ele>
        <time>2022-03-28T14:32:50Z</time>
      </trkpt>
      <trkpt lat="43.73254" lon="6.11909">
        <ele>567.3</ele>
        <time>2022-03-28T14:33:00Z</time>
      </trkpt>
      <trkpt lat="43.73247" lon="6.11898">
        <ele>567.5</ele>
        <time>2022-03-28T14:33:11Z</time>
      </trkpt>
      <trkpt lat="43.73243" lon="6.11884">
        <ele>567.1</ele>
        <time>2022-03-28T14:33:22Z</time>
      </trkpt>
      <trkpt lat="43.73241" lon="6.11868">
        <ele>566.6</ele>
        <time>2022-03-28T14:33:33Z</time>
      </trkpt>
      <trkpt lat="43.73246" lon="6.11855">
        <ele>565.9</ele>
        <time>2022-03-28T14:33:43Z</time>
      </trkpt>
      <trkpt lat="43.73255" lon="6.11845">
        <ele>565.1</ele>
        <time>2022-03-28T14:33:53Z</time>
      </trkpt>
      <trkpt lat="43.73262" lon="6.11832">
        <ele>564</ele>
        <time>2022-03-28T14:34:03Z</time>
      </trkpt>
      <trkpt lat="43.73264" lon="6.11815">
        <ele>563</ele>
        <time>2022-03-28T14:34:15Z</time>
      </trkpt>
      <trkpt lat="43.73261" lon="6.11797">
        <ele>562.3</ele>
        <time>2022-03-28T14:34:27Z</time>
      </trkpt>
      <trkpt lat="43.73257" lon="6.11782">
        <ele>561.9</ele>
        <time>2022-03-28T14:34:37Z</time>
      </trkpt>
      <trkpt lat="43.73265" lon="6.11777">
        <ele>561.4</ele>
        <time>2022-03-28T14:34:47Z</time>
      </trkpt>
      <trkpt lat="43.73274" lon="6.11771">
        <ele>560.9</ele>
        <time>2022-03-28T14:34:58Z</time>
      </trkpt>
      <trkpt lat="43.73283" lon="6.11763">
        <ele>560.3</ele>
        <time>2022-03-28T14:35:09Z</time>
      </trkpt>
      <trkpt lat="43.73294" lon="6.11755">
        <ele>559.6</ele>
        <time>2022-03-28T14:35:24Z</time>
      </trkpt>
      <trkpt lat="43.73301" lon="6.11753">
        <ele>559.3</ele>
        <time>2022-03-28T14:35:53Z</time>
      </trkpt>
      <trkpt lat="43.73311" lon="6.11748">
        <ele>558.5</ele>
        <time>2022-03-28T14:36:06Z</time>
      </trkpt>
      <trkpt lat="43.73322" lon="6.11742">
        <ele>557.7</ele>
        <time>2022-03-28T14:36:17Z</time>
      </trkpt>
      <trkpt lat="43.7333" lon="6.11731">
        <ele>557.2</ele>
        <time>2022-03-28T14:36:27Z</time>
      </trkpt>
      <trkpt lat="43.73337" lon="6.11723">
        <ele>556.7</ele>
        <time>2022-03-28T14:36:37Z</time>
      </trkpt>
      <trkpt lat="43.73347" lon="6.11714">
        <ele>555.7</ele>
        <time>2022-03-28T14:36:49Z</time>
      </trkpt>
      <trkpt lat="43.73353" lon="6.11704">
        <ele>555</ele>
        <time>2022-03-28T14:36:58Z</time>
      </trkpt>
      <trkpt lat="43.73357" lon="6.11693">
        <ele>554.3</ele>
        <time>2022-03-28T14:37:08Z</time>
      </trkpt>
      <trkpt lat="43.73361" lon="6.1168">
        <ele>554</ele>
        <time>2022-03-28T14:37:21Z</time>
      </trkpt>
      <trkpt lat="43.73365" lon="6.1167">
        <ele>553.7</ele>
        <time>2022-03-28T14:37:47Z</time>
      </trkpt>
      <trkpt lat="43.73368" lon="6.11672">
        <ele>553.5</ele>
        <time>2022-03-28T14:38:37Z</time>
      </trkpt>
      <trkpt lat="43.73378" lon="6.11667">
        <ele>552.8</ele>
        <time>2022-03-28T14:38:50Z</time>
      </trkpt>
      <trkpt lat="43.73387" lon="6.1166">
        <ele>552.1</ele>
        <time>2022-03-28T14:39:00Z</time>
      </trkpt>
      <trkpt lat="43.73393" lon="6.11649">
        <ele>551.6</ele>
        <time>2022-03-28T14:39:09Z</time>
      </trkpt>
      <trkpt lat="43.73402" lon="6.11639">
        <ele>551.1</ele>
        <time>2022-03-28T14:39:18Z</time>
      </trkpt>
      <trkpt lat="43.73407" lon="6.11628">
        <ele>550.5</ele>
        <time>2022-03-28T14:39:27Z</time>
      </trkpt>
      <trkpt lat="43.73417" lon="6.11618">
        <ele>549.9</ele>
        <time>2022-03-28T14:39:39Z</time>
      </trkpt>
      <trkpt lat="43.73426" lon="6.11608">
        <ele>548.9</ele>
        <time>2022-03-28T14:39:48Z</time>
      </trkpt>
      <trkpt lat="43.73435" lon="6.116">
        <ele>547.9</ele>
        <time>2022-03-28T14:39:57Z</time>
      </trkpt>
      <trkpt lat="43.73442" lon="6.11587">
        <ele>547.2</ele>
        <time>2022-03-28T14:40:06Z</time>
      </trkpt>
      <trkpt lat="43.7345" lon="6.11578">
        <ele>546.4</ele>
        <time>2022-03-28T14:40:15Z</time>
      </trkpt>
      <trkpt lat="43.73458" lon="6.11571">
        <ele>545.6</ele>
        <time>2022-03-28T14:40:23Z</time>
      </trkpt>
      <trkpt lat="43.73466" lon="6.11563">
        <ele>544.7</ele>
        <time>2022-03-28T14:40:32Z</time>
      </trkpt>
      <trkpt lat="43.73476" lon="6.11556">
        <ele>543.7</ele>
        <time>2022-03-28T14:40:42Z</time>
      </trkpt>
      <trkpt lat="43.73486" lon="6.11547">
        <ele>543</ele>
        <time>2022-03-28T14:40:52Z</time>
      </trkpt>
      <trkpt lat="43.73492" lon="6.11535">
        <ele>542.6</ele>
        <time>2022-03-28T14:41:01Z</time>
      </trkpt>
      <trkpt lat="43.73498" lon="6.11523">
        <ele>542</ele>
        <time>2022-03-28T14:41:13Z</time>
      </trkpt>
      <trkpt lat="43.73502" lon="6.11504">
        <ele>541</ele>
        <time>2022-03-28T14:41:27Z</time>
      </trkpt>
      <trkpt lat="43.73509" lon="6.11495">
        <ele>539.9</ele>
        <time>2022-03-28T14:41:39Z</time>
      </trkpt>
      <trkpt lat="43.73514" lon="6.11489">
        <ele>539.3</ele>
        <time>2022-03-28T14:42:00Z</time>
      </trkpt>
      <trkpt lat="43.73516" lon="6.11478">
        <ele>539</ele>
        <time>2022-03-28T14:42:35Z</time>
      </trkpt>
      <trkpt lat="43.73516" lon="6.11464">
        <ele>538.7</ele>
        <time>2022-03-28T14:42:45Z</time>
      </trkpt>
      <trkpt lat="43.7352" lon="6.11449">
        <ele>538.3</ele>
        <time>2022-03-28T14:42:55Z</time>
      </trkpt>
      <trkpt lat="43.73518" lon="6.11435">
        <ele>538</ele>
        <time>2022-03-28T14:43:06Z</time>
      </trkpt>
      <trkpt lat="43.73518" lon="6.11416">
        <ele>537.3</ele>
        <time>2022-03-28T14:43:17Z</time>
      </trkpt>
      <trkpt lat="43.73515" lon="6.11396">
        <ele>536.7</ele>
        <time>2022-03-28T14:43:29Z</time>
      </trkpt>
      <trkpt lat="43.73512" lon="6.1138">
        <ele>536.1</ele>
        <time>2022-03-28T14:43:39Z</time>
      </trkpt>
      <trkpt lat="43.73507" lon="6.11365">
        <ele>535.3</ele>
        <time>2022-03-28T14:43:48Z</time>
      </trkpt>
      <trkpt lat="43.73502" lon="6.11352">
        <ele>534.7</ele>
        <time>2022-03-28T14:43:57Z</time>
      </trkpt>
      <trkpt lat="43.735" lon="6.1134">
        <ele>534.2</ele>
        <time>2022-03-28T14:44:06Z</time>
      </trkpt>
      <trkpt lat="43.73496" lon="6.11328">
        <ele>534</ele>
        <time>2022-03-28T14:44:14Z</time>
      </trkpt>
      <trkpt lat="43.73492" lon="6.11316">
        <ele>533.9</ele>
        <time>2022-03-28T14:44:22Z</time>
      </trkpt>
      <trkpt lat="43.73491" lon="6.11301">
        <ele>533.7</ele>
        <time>2022-03-28T14:44:31Z</time>
      </trkpt>
      <trkpt lat="43.73495" lon="6.1129">
        <ele>533.4</ele>
        <time>2022-03-28T14:44:40Z</time>
      </trkpt>
      <trkpt lat="43.73496" lon="6.11276">
        <ele>533.3</ele>
        <time>2022-03-28T14:44:49Z</time>
      </trkpt>
      <trkpt lat="43.73494" lon="6.11261">
        <ele>533.3</ele>
        <time>2022-03-28T14:44:58Z</time>
      </trkpt>
      <trkpt lat="43.73494" lon="6.11248">
        <ele>533.1</ele>
        <time>2022-03-28T14:45:06Z</time>
      </trkpt>
      <trkpt lat="43.73492" lon="6.11236">
        <ele>532.6</ele>
        <time>2022-03-28T14:45:14Z</time>
      </trkpt>
      <trkpt lat="43.73486" lon="6.11227">
        <ele>532.3</ele>
        <time>2022-03-28T14:45:22Z</time>
      </trkpt>
      <trkpt lat="43.73477" lon="6.11227">
        <ele>532.3</ele>
        <time>2022-03-28T14:45:30Z</time>
      </trkpt>
      <trkpt lat="43.73468" lon="6.1123">
        <ele>532.6</ele>
        <time>2022-03-28T14:45:38Z</time>
      </trkpt>
      <trkpt lat="43.73459" lon="6.11228">
        <ele>532.4</ele>
        <time>2022-03-28T14:45:51Z</time>
      </trkpt>
      <trkpt lat="43.7345" lon="6.11225">
        <ele>532.2</ele>
        <time>2022-03-28T14:46:02Z</time>
      </trkpt>
      <trkpt lat="43.7344" lon="6.11226">
        <ele>532</ele>
        <time>2022-03-28T14:46:12Z</time>
      </trkpt>
      <trkpt lat="43.73431" lon="6.11224">
        <ele>531.3</ele>
        <time>2022-03-28T14:46:21Z</time>
      </trkpt>
      <trkpt lat="43.73422" lon="6.11226">
        <ele>530.9</ele>
        <time>2022-03-28T14:46:30Z</time>
      </trkpt>
      <trkpt lat="43.73411" lon="6.11228">
        <ele>530.3</ele>
        <time>2022-03-28T14:46:39Z</time>
      </trkpt>
      <trkpt lat="43.73401" lon="6.11235">
        <ele>530.6</ele>
        <time>2022-03-28T14:46:49Z</time>
      </trkpt>
      <trkpt lat="43.73392" lon="6.1124">
        <ele>531</ele>
        <time>2022-03-28T14:46:58Z</time>
      </trkpt>
      <trkpt lat="43.73382" lon="6.11246">
        <ele>531.2</ele>
        <time>2022-03-28T14:47:07Z</time>
      </trkpt>
      <trkpt lat="43.73372" lon="6.11253">
        <ele>531.1</ele>
        <time>2022-03-28T14:47:16Z</time>
      </trkpt>
      <trkpt lat="43.73364" lon="6.1126">
        <ele>531.5</ele>
        <time>2022-03-28T14:47:24Z</time>
      </trkpt>
      <trkpt lat="43.73355" lon="6.11268">
        <ele>532.1</ele>
        <time>2022-03-28T14:47:33Z</time>
      </trkpt>
      <trkpt lat="43.73346" lon="6.11275">
        <ele>532.2</ele>
        <time>2022-03-28T14:47:43Z</time>
      </trkpt>
      <trkpt lat="43.73335" lon="6.11282">
        <ele>532.1</ele>
        <time>2022-03-28T14:47:54Z</time>
      </trkpt>
      <trkpt lat="43.73327" lon="6.11294">
        <ele>533.4</ele>
        <time>2022-03-28T14:48:05Z</time>
      </trkpt>
      <trkpt lat="43.73319" lon="6.11303">
        <ele>534.1</ele>
        <time>2022-03-28T14:48:16Z</time>
      </trkpt>
      <trkpt lat="43.73312" lon="6.11314">
        <ele>535.1</ele>
        <time>2022-03-28T14:48:27Z</time>
      </trkpt>
      <trkpt lat="43.73303" lon="6.11328">
        <ele>536.8</ele>
        <time>2022-03-28T14:48:39Z</time>
      </trkpt>
      <trkpt lat="43.73293" lon="6.11336">
        <ele>537</ele>
        <time>2022-03-28T14:48:50Z</time>
      </trkpt>
      <trkpt lat="43.73284" lon="6.11346">
        <ele>537.4</ele>
        <time>2022-03-28T14:49:00Z</time>
      </trkpt>
      <trkpt lat="43.73277" lon="6.11357">
        <ele>538.4</ele>
        <time>2022-03-28T14:49:11Z</time>
      </trkpt>
      <trkpt lat="43.73269" lon="6.11366">
        <ele>539.2</ele>
        <time>2022-03-28T14:49:21Z</time>
      </trkpt>
      <trkpt lat="43.73262" lon="6.11375">
        <ele>539.7</ele>
        <time>2022-03-28T14:49:31Z</time>
      </trkpt>
      <trkpt lat="43.73253" lon="6.11383">
        <ele>539.8</ele>
        <time>2022-03-28T14:49:41Z</time>
      </trkpt>
      <trkpt lat="43.73242" lon="6.11389">
        <ele>539.4</ele>
        <time>2022-03-28T14:49:50Z</time>
      </trkpt>
      <trkpt lat="43.7323" lon="6.11394">
        <ele>538.9</ele>
        <time>2022-03-28T14:49:59Z</time>
      </trkpt>
      <trkpt lat="43.7322" lon="6.11392">
        <ele>538.5</ele>
        <time>2022-03-28T14:50:08Z</time>
      </trkpt>
      <trkpt lat="43.73213" lon="6.11384">
        <ele>538.9</ele>
        <time>2022-03-28T14:50:27Z</time>
      </trkpt>
      <trkpt lat="43.73208" lon="6.11369">
        <ele>539.5</ele>
        <time>2022-03-28T14:50:40Z</time>
      </trkpt>
      <trkpt lat="43.73201" lon="6.11353">
        <ele>541.2</ele>
        <time>2022-03-28T14:50:53Z</time>
      </trkpt>
      <trkpt lat="43.73191" lon="6.11339">
        <ele>543.2</ele>
        <time>2022-03-28T14:51:04Z</time>
      </trkpt>
      <trkpt lat="43.73182" lon="6.1133">
        <ele>544.4</ele>
        <time>2022-03-28T14:51:14Z</time>
      </trkpt>
      <trkpt lat="43.73171" lon="6.11326">
        <ele>545.6</ele>
        <time>2022-03-28T14:51:24Z</time>
      </trkpt>
      <trkpt lat="43.73162" lon="6.1132">
        <ele>546.3</ele>
        <time>2022-03-28T14:51:34Z</time>
      </trkpt>
      <trkpt lat="43.7315" lon="6.11322">
        <ele>547.2</ele>
        <time>2022-03-28T14:51:46Z</time>
      </trkpt>
      <trkpt lat="43.7314" lon="6.11332">
        <ele>547.9</ele>
        <time>2022-03-28T14:51:58Z</time>
      </trkpt>
      <trkpt lat="43.73135" lon="6.1135">
        <ele>547.6</ele>
        <time>2022-03-28T14:52:11Z</time>
      </trkpt>
      <trkpt lat="43.73129" lon="6.11362">
        <ele>547.7</ele>
        <time>2022-03-28T14:52:23Z</time>
      </trkpt>
      <trkpt lat="43.73118" lon="6.11363">
        <ele>548.5</ele>
        <time>2022-03-28T14:52:35Z</time>
      </trkpt>
      <trkpt lat="43.73109" lon="6.1137">
        <ele>549.1</ele>
        <time>2022-03-28T14:52:48Z</time>
      </trkpt>
      <trkpt lat="43.73097" lon="6.11375">
        <ele>549.5</ele>
        <time>2022-03-28T14:53:02Z</time>
      </trkpt>
      <trkpt lat="43.73091" lon="6.11391">
        <ele>549.7</ele>
        <time>2022-03-28T14:53:17Z</time>
      </trkpt>
      <trkpt lat="43.73085" lon="6.11406">
        <ele>550</ele>
        <time>2022-03-28T14:53:31Z</time>
      </trkpt>
      <trkpt lat="43.73091" lon="6.1141">
        <ele>549.7</ele>
        <time>2022-03-28T14:53:52Z</time>
      </trkpt>
      <trkpt lat="43.73089" lon="6.11424">
        <ele>549.7</ele>
        <time>2022-03-28T14:54:08Z</time>
      </trkpt>
      <trkpt lat="43.73088" lon="6.11437">
        <ele>549.7</ele>
        <time>2022-03-28T14:54:25Z</time>
      </trkpt>
      <trkpt lat="43.73078" lon="6.11442">
        <ele>550</ele>
        <time>2022-03-28T14:54:42Z</time>
      </trkpt>
      <trkpt lat="43.7308" lon="6.11463">
        <ele>549.5</ele>
        <time>2022-03-28T14:55:18Z</time>
      </trkpt>
      <trkpt lat="43.73091" lon="6.11469">
        <ele>548.6</ele>
        <time>2022-03-28T14:55:36Z</time>
      </trkpt>
      <trkpt lat="43.73096" lon="6.11481">
        <ele>548.2</ele>
        <time>2022-03-28T14:55:55Z</time>
      </trkpt>
      <trkpt lat="43.73095" lon="6.11489">
        <ele>548.4</ele>
        <time>2022-03-28T14:56:26Z</time>
      </trkpt>
      <trkpt lat="43.73095" lon="6.11504">
        <ele>548.7</ele>
        <time>2022-03-28T14:56:40Z</time>
      </trkpt>
      <trkpt lat="43.73097" lon="6.1152">
        <ele>549.2</ele>
        <time>2022-03-28T14:56:53Z</time>
      </trkpt>
      <trkpt lat="43.73098" lon="6.11534">
        <ele>549.7</ele>
        <time>2022-03-28T14:57:07Z</time>
      </trkpt>
      <trkpt lat="43.731" lon="6.11551">
        <ele>550.2</ele>
        <time>2022-03-28T14:57:21Z</time>
      </trkpt>
      <trkpt lat="43.73105" lon="6.11567">
        <ele>551</ele>
        <time>2022-03-28T14:57:32Z</time>
      </trkpt>
      <trkpt lat="43.73107" lon="6.11582">
        <ele>551.9</ele>
        <time>2022-03-28T14:57:44Z</time>
      </trkpt>
      <trkpt lat="43.73109" lon="6.11595">
        <ele>552.1</ele>
        <time>2022-03-28T14:57:56Z</time>
      </trkpt>
      <trkpt lat="43.73117" lon="6.11604">
        <ele>551.6</ele>
        <time>2022-03-28T14:58:09Z</time>
      </trkpt>
      <trkpt lat="43.73119" lon="6.11615">
        <ele>551.6</ele>
        <time>2022-03-28T14:58:26Z</time>
      </trkpt>
      <trkpt lat="43.73122" lon="6.11616">
        <ele>551.4</ele>
        <time>2022-03-28T14:59:08Z</time>
      </trkpt>
      <trkpt lat="43.73119" lon="6.11629">
        <ele>552.1</ele>
        <time>2022-03-28T15:01:09Z</time>
      </trkpt>
      <trkpt lat="43.73121" lon="6.1163">
        <ele>552</ele>
        <time>2022-03-28T15:01:22Z</time>
      </trkpt>
      <trkpt lat="43.73114" lon="6.11635">
        <ele>552.6</ele>
        <time>2022-03-28T15:01:36Z</time>
      </trkpt>
      <trkpt lat="43.7311" lon="6.11653">
        <ele>553.1</ele>
        <time>2022-03-28T15:01:47Z</time>
      </trkpt>
      <trkpt lat="43.73116" lon="6.11671">
        <ele>553.3</ele>
        <time>2022-03-28T15:01:57Z</time>
      </trkpt>
      <trkpt lat="43.7312" lon="6.11682">
        <ele>554.1</ele>
        <time>2022-03-28T15:02:06Z</time>
      </trkpt>
      <trkpt lat="43.73116" lon="6.11693">
        <ele>554.9</ele>
        <time>2022-03-28T15:02:15Z</time>
      </trkpt>
      <trkpt lat="43.73107" lon="6.11703">
        <ele>556</ele>
        <time>2022-03-28T15:02:24Z</time>
      </trkpt>
      <trkpt lat="43.73099" lon="6.11711">
        <ele>557</ele>
        <time>2022-03-28T15:02:33Z</time>
      </trkpt>
      <trkpt lat="43.73095" lon="6.11722">
        <ele>558</ele>
        <time>2022-03-28T15:02:46Z</time>
      </trkpt>
      <trkpt lat="43.73085" lon="6.11728">
        <ele>558.4</ele>
        <time>2022-03-28T15:02:57Z</time>
      </trkpt>
      <trkpt lat="43.73076" lon="6.11725">
        <ele>558.2</ele>
        <time>2022-03-28T15:03:09Z</time>
      </trkpt>
      <trkpt lat="43.73067" lon="6.11731">
        <ele>558.6</ele>
        <time>2022-03-28T15:03:21Z</time>
      </trkpt>
      <trkpt lat="43.73058" lon="6.11741">
        <ele>559.3</ele>
        <time>2022-03-28T15:03:31Z</time>
      </trkpt>
      <trkpt lat="43.73051" lon="6.1175">
        <ele>560.2</ele>
        <time>2022-03-28T15:03:42Z</time>
      </trkpt>
      <trkpt lat="43.73043" lon="6.11759">
        <ele>560.9</ele>
        <time>2022-03-28T15:03:52Z</time>
      </trkpt>
      <trkpt lat="43.73034" lon="6.11766">
        <ele>561.5</ele>
        <time>2022-03-28T15:04:03Z</time>
      </trkpt>
      <trkpt lat="43.73024" lon="6.11769">
        <ele>562</ele>
        <time>2022-03-28T15:04:15Z</time>
      </trkpt>
      <trkpt lat="43.73013" lon="6.11779">
        <ele>563.1</ele>
        <time>2022-03-28T15:04:30Z</time>
      </trkpt>
      <trkpt lat="43.73007" lon="6.11789">
        <ele>563.7</ele>
        <time>2022-03-28T15:04:42Z</time>
      </trkpt>
      <trkpt lat="43.72996" lon="6.11801">
        <ele>564.5</ele>
        <time>2022-03-28T15:04:53Z</time>
      </trkpt>
      <trkpt lat="43.7299" lon="6.11812">
        <ele>565.7</ele>
        <time>2022-03-28T15:05:03Z</time>
      </trkpt>
      <trkpt lat="43.72985" lon="6.11826">
        <ele>566.9</ele>
        <time>2022-03-28T15:05:14Z</time>
      </trkpt>
      <trkpt lat="43.72981" lon="6.1184">
        <ele>567.7</ele>
        <time>2022-03-28T15:05:25Z</time>
      </trkpt>
      <trkpt lat="43.72977" lon="6.11852">
        <ele>568.5</ele>
        <time>2022-03-28T15:05:35Z</time>
      </trkpt>
      <trkpt lat="43.72973" lon="6.11866">
        <ele>569.1</ele>
        <time>2022-03-28T15:05:46Z</time>
      </trkpt>
      <trkpt lat="43.72969" lon="6.11882">
        <ele>570</ele>
        <time>2022-03-28T15:05:58Z</time>
      </trkpt>
      <trkpt lat="43.72964" lon="6.11896">
        <ele>571.4</ele>
        <time>2022-03-28T15:06:09Z</time>
      </trkpt>
      <trkpt lat="43.72957" lon="6.11908">
        <ele>572.7</ele>
        <time>2022-03-28T15:06:20Z</time>
      </trkpt>
      <trkpt lat="43.72951" lon="6.1192">
        <ele>573.8</ele>
        <time>2022-03-28T15:06:30Z</time>
      </trkpt>
      <trkpt lat="43.72948" lon="6.11932">
        <ele>574.9</ele>
        <time>2022-03-28T15:06:40Z</time>
      </trkpt>
      <trkpt lat="43.72945" lon="6.11945">
        <ele>576</ele>
        <time>2022-03-28T15:06:51Z</time>
      </trkpt>
      <trkpt lat="43.72938" lon="6.11956">
        <ele>577.3</ele>
        <time>2022-03-28T15:07:03Z</time>
      </trkpt>
      <trkpt lat="43.72933" lon="6.11968">
        <ele>578.5</ele>
        <time>2022-03-28T15:07:16Z</time>
      </trkpt>
      <trkpt lat="43.72928" lon="6.11984">
        <ele>580.1</ele>
        <time>2022-03-28T15:07:26Z</time>
      </trkpt>
      <trkpt lat="43.72922" lon="6.11995">
        <ele>581.3</ele>
        <time>2022-03-28T15:07:36Z</time>
      </trkpt>
      <trkpt lat="43.72918" lon="6.12006">
        <ele>582.4</ele>
        <time>2022-03-28T15:07:45Z</time>
      </trkpt>
      <trkpt lat="43.72913" lon="6.12018">
        <ele>583.5</ele>
        <time>2022-03-28T15:07:56Z</time>
      </trkpt>
      <trkpt lat="43.72908" lon="6.1203">
        <ele>584.8</ele>
        <time>2022-03-28T15:08:06Z</time>
      </trkpt>
      <trkpt lat="43.72903" lon="6.12042">
        <ele>586</ele>
        <time>2022-03-28T15:08:18Z</time>
      </trkpt>
      <trkpt lat="43.72896" lon="6.12055">
        <ele>587.4</ele>
        <time>2022-03-28T15:08:30Z</time>
      </trkpt>
      <trkpt lat="43.72887" lon="6.12067">
        <ele>588.9</ele>
        <time>2022-03-28T15:08:44Z</time>
      </trkpt>
      <trkpt lat="43.7288" lon="6.12078">
        <ele>590.2</ele>
        <time>2022-03-28T15:08:56Z</time>
      </trkpt>
      <trkpt lat="43.72876" lon="6.12092">
        <ele>591.6</ele>
        <time>2022-03-28T15:09:06Z</time>
      </trkpt>
      <trkpt lat="43.72871" lon="6.12104">
        <ele>592.7</ele>
        <time>2022-03-28T15:09:17Z</time>
      </trkpt>
      <trkpt lat="43.72868" lon="6.12116">
        <ele>593.9</ele>
        <time>2022-03-28T15:09:28Z</time>
      </trkpt>
      <trkpt lat="43.72861" lon="6.12127">
        <ele>595.2</ele>
        <time>2022-03-28T15:09:39Z</time>
      </trkpt>
      <trkpt lat="43.72852" lon="6.12134">
        <ele>596.3</ele>
        <time>2022-03-28T15:09:51Z</time>
      </trkpt>
      <trkpt lat="43.72842" lon="6.12142">
        <ele>597.6</ele>
        <time>2022-03-28T15:10:02Z</time>
      </trkpt>
      <trkpt lat="43.72833" lon="6.12153">
        <ele>598.5</ele>
        <time>2022-03-28T15:10:13Z</time>
      </trkpt>
      <trkpt lat="43.72828" lon="6.12166">
        <ele>599</ele>
        <time>2022-03-28T15:10:23Z</time>
      </trkpt>
      <trkpt lat="43.72824" lon="6.12179">
        <ele>599.3</ele>
        <time>2022-03-28T15:10:35Z</time>
      </trkpt>
      <trkpt lat="43.72818" lon="6.12194">
        <ele>599.4</ele>
        <time>2022-03-28T15:10:47Z</time>
      </trkpt>
      <trkpt lat="43.7281" lon="6.12204">
        <ele>599.2</ele>
        <time>2022-03-28T15:10:57Z</time>
      </trkpt>
      <trkpt lat="43.728" lon="6.12213">
        <ele>598.8</ele>
        <time>2022-03-28T15:11:07Z</time>
      </trkpt>
      <trkpt lat="43.7279" lon="6.12219">
        <ele>598.4</ele>
        <time>2022-03-28T15:11:17Z</time>
      </trkpt>
      <trkpt lat="43.72781" lon="6.12227">
        <ele>598</ele>
        <time>2022-03-28T15:11:26Z</time>
      </trkpt>
      <trkpt lat="43.72772" lon="6.12237">
        <ele>597.3</ele>
        <time>2022-03-28T15:11:36Z</time>
      </trkpt>
      <trkpt lat="43.72765" lon="6.12247">
        <ele>596.6</ele>
        <time>2022-03-28T15:11:44Z</time>
      </trkpt>
      <trkpt lat="43.72759" lon="6.12259">
        <ele>595.9</ele>
        <time>2022-03-28T15:11:53Z</time>
      </trkpt>
      <trkpt lat="43.72754" lon="6.12267">
        <ele>595.1</ele>
        <time>2022-03-28T15:12:04Z</time>
      </trkpt>
      <trkpt lat="43.72747" lon="6.1228">
        <ele>593.7</ele>
        <time>2022-03-28T15:12:17Z</time>
      </trkpt>
      <trkpt lat="43.7274" lon="6.12291">
        <ele>592.7</ele>
        <time>2022-03-28T15:12:30Z</time>
      </trkpt>
      <trkpt lat="43.72732" lon="6.12301">
        <ele>591.7</ele>
        <time>2022-03-28T15:12:39Z</time>
      </trkpt>
      <trkpt lat="43.72725" lon="6.12315">
        <ele>590.1</ele>
        <time>2022-03-28T15:12:53Z</time>
      </trkpt>
      <trkpt lat="43.7272" lon="6.12332">
        <ele>588.2</ele>
        <time>2022-03-28T15:13:03Z</time>
      </trkpt>
      <trkpt lat="43.72716" lon="6.12346">
        <ele>587.8</ele>
        <time>2022-03-28T15:13:12Z</time>
      </trkpt>
      <trkpt lat="43.72712" lon="6.1236">
        <ele>587.4</ele>
        <time>2022-03-28T15:13:21Z</time>
      </trkpt>
      <trkpt lat="43.72709" lon="6.12372">
        <ele>587.5</ele>
        <time>2022-03-28T15:13:30Z</time>
      </trkpt>
      <trkpt lat="43.72706" lon="6.12387">
        <ele>587.6</ele>
        <time>2022-03-28T15:13:42Z</time>
      </trkpt>
      <trkpt lat="43.72701" lon="6.124">
        <ele>587.3</ele>
        <time>2022-03-28T15:13:54Z</time>
      </trkpt>
      <trkpt lat="43.72696" lon="6.12401">
        <ele>587.5</ele>
        <time>2022-03-28T15:14:30Z</time>
      </trkpt>
      <trkpt lat="43.72696" lon="6.1242">
        <ele>586.8</ele>
        <time>2022-03-28T15:14:39Z</time>
      </trkpt>
      <trkpt lat="43.72693" lon="6.12434">
        <ele>586.5</ele>
        <time>2022-03-28T15:14:47Z</time>
      </trkpt>
      <trkpt lat="43.72688" lon="6.12447">
        <ele>586.7</ele>
        <time>2022-03-28T15:14:56Z</time>
      </trkpt>
      <trkpt lat="43.72684" lon="6.12459">
        <ele>586.9</ele>
        <time>2022-03-28T15:15:03Z</time>
      </trkpt>
      <trkpt lat="43.72682" lon="6.1247">
        <ele>587</ele>
        <time>2022-03-28T15:15:12Z</time>
      </trkpt>
      <trkpt lat="43.7268" lon="6.12485">
        <ele>586.3</ele>
        <time>2022-03-28T15:15:21Z</time>
      </trkpt>
      <trkpt lat="43.72675" lon="6.12498">
        <ele>586.2</ele>
        <time>2022-03-28T15:15:29Z</time>
      </trkpt>
      <trkpt lat="43.7267" lon="6.12513">
        <ele>586.1</ele>
        <time>2022-03-28T15:15:38Z</time>
      </trkpt>
      <trkpt lat="43.72664" lon="6.12524">
        <ele>586.4</ele>
        <time>2022-03-28T15:15:48Z</time>
      </trkpt>
      <trkpt lat="43.72655" lon="6.12531">
        <ele>586.5</ele>
        <time>2022-03-28T15:15:57Z</time>
      </trkpt>
      <trkpt lat="43.72644" lon="6.12538">
        <ele>586.8</ele>
        <time>2022-03-28T15:16:07Z</time>
      </trkpt>
      <trkpt lat="43.72635" lon="6.12548">
        <ele>586.8</ele>
        <time>2022-03-28T15:16:17Z</time>
      </trkpt>
      <trkpt lat="43.72625" lon="6.12558">
        <ele>586.3</ele>
        <time>2022-03-28T15:16:26Z</time>
      </trkpt>
      <trkpt lat="43.72616" lon="6.12565">
        <ele>586.1</ele>
        <time>2022-03-28T15:16:35Z</time>
      </trkpt>
      <trkpt lat="43.72605" lon="6.12572">
        <ele>586.1</ele>
        <time>2022-03-28T15:16:44Z</time>
      </trkpt>
      <trkpt lat="43.72595" lon="6.12573">
        <ele>586.6</ele>
        <time>2022-03-28T15:16:55Z</time>
      </trkpt>
      <trkpt lat="43.72584" lon="6.12576">
        <ele>586.8</ele>
        <time>2022-03-28T15:17:06Z</time>
      </trkpt>
      <trkpt lat="43.72571" lon="6.12583">
        <ele>585.7</ele>
        <time>2022-03-28T15:17:18Z</time>
      </trkpt>
      <trkpt lat="43.72558" lon="6.12586">
        <ele>584.9</ele>
        <time>2022-03-28T15:17:28Z</time>
      </trkpt>
      <trkpt lat="43.72547" lon="6.12589">
        <ele>584.3</ele>
        <time>2022-03-28T15:17:37Z</time>
      </trkpt>
      <trkpt lat="43.72538" lon="6.12593">
        <ele>583.4</ele>
        <time>2022-03-28T15:17:47Z</time>
      </trkpt>
      <trkpt lat="43.72527" lon="6.126">
        <ele>582.2</ele>
        <time>2022-03-28T15:17:57Z</time>
      </trkpt>
      <trkpt lat="43.72515" lon="6.12608">
        <ele>580.5</ele>
        <time>2022-03-28T15:18:06Z</time>
      </trkpt>
      <trkpt lat="43.72506" lon="6.12612">
        <ele>579.4</ele>
        <time>2022-03-28T15:18:18Z</time>
      </trkpt>
      <trkpt lat="43.72504" lon="6.12612">
        <ele>579.3</ele>
        <time>2022-03-28T15:18:40Z</time>
      </trkpt>
      <trkpt lat="43.72491" lon="6.12609">
        <ele>578.3</ele>
        <time>2022-03-28T15:18:50Z</time>
      </trkpt>
      <trkpt lat="43.72482" lon="6.12608">
        <ele>577.4</ele>
        <time>2022-03-28T15:18:59Z</time>
      </trkpt>
      <trkpt lat="43.72472" lon="6.12606">
        <ele>576.6</ele>
        <time>2022-03-28T15:19:08Z</time>
      </trkpt>
      <trkpt lat="43.72459" lon="6.12601">
        <ele>576</ele>
        <time>2022-03-28T15:19:18Z</time>
      </trkpt>
      <trkpt lat="43.72448" lon="6.12595">
        <ele>575.5</ele>
        <time>2022-03-28T15:19:27Z</time>
      </trkpt>
      <trkpt lat="43.72436" lon="6.12588">
        <ele>574.8</ele>
        <time>2022-03-28T15:19:36Z</time>
      </trkpt>
      <trkpt lat="43.72427" lon="6.1258">
        <ele>574.6</ele>
        <time>2022-03-28T15:19:44Z</time>
      </trkpt>
      <trkpt lat="43.72417" lon="6.12572">
        <ele>574.2</ele>
        <time>2022-03-28T15:19:54Z</time>
      </trkpt>
      <trkpt lat="43.72407" lon="6.12564">
        <ele>573.8</ele>
        <time>2022-03-28T15:20:04Z</time>
      </trkpt>
      <trkpt lat="43.72398" lon="6.12555">
        <ele>573.4</ele>
        <time>2022-03-28T15:20:14Z</time>
      </trkpt>
      <trkpt lat="43.7239" lon="6.12543">
        <ele>572.7</ele>
        <time>2022-03-28T15:20:23Z</time>
      </trkpt>
      <trkpt lat="43.72383" lon="6.12533">
        <ele>571.5</ele>
        <time>2022-03-28T15:20:31Z</time>
      </trkpt>
      <trkpt lat="43.72377" lon="6.12523">
        <ele>570.4</ele>
        <time>2022-03-28T15:20:40Z</time>
      </trkpt>
      <trkpt lat="43.72371" lon="6.12511">
        <ele>569.2</ele>
        <time>2022-03-28T15:20:50Z</time>
      </trkpt>
      <trkpt lat="43.72368" lon="6.12499">
        <ele>568.5</ele>
        <time>2022-03-28T15:21:01Z</time>
      </trkpt>
      <trkpt lat="43.72366" lon="6.1248">
        <ele>566.7</ele>
        <time>2022-03-28T15:21:15Z</time>
      </trkpt>
      <trkpt lat="43.72366" lon="6.12459">
        <ele>565</ele>
        <time>2022-03-28T15:21:25Z</time>
      </trkpt>
      <trkpt lat="43.72363" lon="6.12439">
        <ele>563.2</ele>
        <time>2022-03-28T15:21:35Z</time>
      </trkpt>
      <trkpt lat="43.72359" lon="6.12439">
        <ele>562.8</ele>
        <time>2022-03-28T15:21:48Z</time>
      </trkpt>
      <trkpt lat="43.7235" lon="6.12444">
        <ele>563</ele>
        <time>2022-03-28T15:22:11Z</time>
      </trkpt>
      <trkpt lat="43.72339" lon="6.12441">
        <ele>562.8</ele>
        <time>2022-03-28T15:22:28Z</time>
      </trkpt>
      <trkpt lat="43.72329" lon="6.12436">
        <ele>562.6</ele>
        <time>2022-03-28T15:22:37Z</time>
      </trkpt>
      <trkpt lat="43.7232" lon="6.12429">
        <ele>562.6</ele>
        <time>2022-03-28T15:22:45Z</time>
      </trkpt>
      <trkpt lat="43.72309" lon="6.12425">
        <ele>563.1</ele>
        <time>2022-03-28T15:22:54Z</time>
      </trkpt>
      <trkpt lat="43.72299" lon="6.12419">
        <ele>563.3</ele>
        <time>2022-03-28T15:23:02Z</time>
      </trkpt>
      <trkpt lat="43.72293" lon="6.1241">
        <ele>562.9</ele>
        <time>2022-03-28T15:23:11Z</time>
      </trkpt>
      <trkpt lat="43.72284" lon="6.12401">
        <ele>562.6</ele>
        <time>2022-03-28T15:23:21Z</time>
      </trkpt>
      <trkpt lat="43.72274" lon="6.12398">
        <ele>562.8</ele>
        <time>2022-03-28T15:23:30Z</time>
      </trkpt>
      <trkpt lat="43.72264" lon="6.12396">
        <ele>563.1</ele>
        <time>2022-03-28T15:23:39Z</time>
      </trkpt>
      <trkpt lat="43.72254" lon="6.12392">
        <ele>563.2</ele>
        <time>2022-03-28T15:23:48Z</time>
      </trkpt>
      <trkpt lat="43.72245" lon="6.12394">
        <ele>563.7</ele>
        <time>2022-03-28T15:23:56Z</time>
      </trkpt>
      <trkpt lat="43.72234" lon="6.12398">
        <ele>564.5</ele>
        <time>2022-03-28T15:24:04Z</time>
      </trkpt>
      <trkpt lat="43.72224" lon="6.124">
        <ele>565.1</ele>
        <time>2022-03-28T15:24:13Z</time>
      </trkpt>
      <trkpt lat="43.72215" lon="6.12398">
        <ele>565.3</ele>
        <time>2022-03-28T15:24:21Z</time>
      </trkpt>
      <trkpt lat="43.72205" lon="6.12399">
        <ele>565.8</ele>
        <time>2022-03-28T15:24:30Z</time>
      </trkpt>
      <trkpt lat="43.72194" lon="6.12395">
        <ele>565.7</ele>
        <time>2022-03-28T15:24:39Z</time>
      </trkpt>
      <trkpt lat="43.72186" lon="6.12385">
        <ele>564.6</ele>
        <time>2022-03-28T15:24:48Z</time>
      </trkpt>
      <trkpt lat="43.72179" lon="6.12375">
        <ele>563.8</ele>
        <time>2022-03-28T15:24:56Z</time>
      </trkpt>
      <trkpt lat="43.72171" lon="6.12369">
        <ele>563.5</ele>
        <time>2022-03-28T15:25:03Z</time>
      </trkpt>
      <trkpt lat="43.7216" lon="6.12366">
        <ele>563.3</ele>
        <time>2022-03-28T15:25:11Z</time>
      </trkpt>
      <trkpt lat="43.72149" lon="6.12365">
        <ele>563.3</ele>
        <time>2022-03-28T15:25:19Z</time>
      </trkpt>
      <trkpt lat="43.72138" lon="6.12364">
        <ele>563.2</ele>
        <time>2022-03-28T15:25:27Z</time>
      </trkpt>
      <trkpt lat="43.7213" lon="6.12365">
        <ele>562.9</ele>
        <time>2022-03-28T15:25:34Z</time>
      </trkpt>
      <trkpt lat="43.7212" lon="6.12367">
        <ele>562.6</ele>
        <time>2022-03-28T15:25:42Z</time>
      </trkpt>
      <trkpt lat="43.7211" lon="6.12372">
        <ele>562.3</ele>
        <time>2022-03-28T15:25:49Z</time>
      </trkpt>
      <trkpt lat="43.721" lon="6.12374">
        <ele>562.2</ele>
        <time>2022-03-28T15:25:57Z</time>
      </trkpt>
      <trkpt lat="43.72094" lon="6.12381">
        <ele>562.5</ele>
        <time>2022-03-28T15:26:04Z</time>
      </trkpt>
      <trkpt lat="43.7209" lon="6.12391">
        <ele>563.1</ele>
        <time>2022-03-28T15:26:12Z</time>
      </trkpt>
      <trkpt lat="43.72089" lon="6.12401">
        <ele>563.5</ele>
        <time>2022-03-28T15:26:20Z</time>
      </trkpt>
      <trkpt lat="43.72088" lon="6.12413">
        <ele>564</ele>
        <time>2022-03-28T15:26:28Z</time>
      </trkpt>
      <trkpt lat="43.72083" lon="6.12436">
        <ele>564.7</ele>
        <time>2022-03-28T15:26:40Z</time>
      </trkpt>
      <trkpt lat="43.72078" lon="6.12449">
        <ele>565.2</ele>
        <time>2022-03-28T15:26:49Z</time>
      </trkpt>
      <trkpt lat="43.72074" lon="6.1246">
        <ele>565.6</ele>
        <time>2022-03-28T15:26:58Z</time>
      </trkpt>
      <trkpt lat="43.72072" lon="6.12473">
        <ele>566</ele>
        <time>2022-03-28T15:27:07Z</time>
      </trkpt>
      <trkpt lat="43.72071" lon="6.12487">
        <ele>566.6</ele>
        <time>2022-03-28T15:27:17Z</time>
      </trkpt>
      <trkpt lat="43.72069" lon="6.12501">
        <ele>567.1</ele>
        <time>2022-03-28T15:27:26Z</time>
      </trkpt>
      <trkpt lat="43.72067" lon="6.12514">
        <ele>567.9</ele>
        <time>2022-03-28T15:27:35Z</time>
      </trkpt>
      <trkpt lat="43.72063" lon="6.12528">
        <ele>568.6</ele>
        <time>2022-03-28T15:27:44Z</time>
      </trkpt>
      <trkpt lat="43.7206" lon="6.12543">
        <ele>568.9</ele>
        <time>2022-03-28T15:27:53Z</time>
      </trkpt>
      <trkpt lat="43.72054" lon="6.12557">
        <ele>569.2</ele>
        <time>2022-03-28T15:28:02Z</time>
      </trkpt>
      <trkpt lat="43.7205" lon="6.1257">
        <ele>570.1</ele>
        <time>2022-03-28T15:28:11Z</time>
      </trkpt>
      <trkpt lat="43.72047" lon="6.12583">
        <ele>570.7</ele>
        <time>2022-03-28T15:28:21Z</time>
      </trkpt>
      <trkpt lat="43.72041" lon="6.12597">
        <ele>571.5</ele>
        <time>2022-03-28T15:28:32Z</time>
      </trkpt>
      <trkpt lat="43.7204" lon="6.12611">
        <ele>572.5</ele>
        <time>2022-03-28T15:28:41Z</time>
      </trkpt>
      <trkpt lat="43.72041" lon="6.12624">
        <ele>573</ele>
        <time>2022-03-28T15:28:51Z</time>
      </trkpt>
      <trkpt lat="43.72041" lon="6.12639">
        <ele>573.5</ele>
        <time>2022-03-28T15:29:01Z</time>
      </trkpt>
      <trkpt lat="43.72046" lon="6.12661">
        <ele>574.7</ele>
        <time>2022-03-28T15:29:12Z</time>
      </trkpt>
      <trkpt lat="43.72054" lon="6.12673">
        <ele>575.4</ele>
        <time>2022-03-28T15:29:21Z</time>
      </trkpt>
      <trkpt lat="43.72066" lon="6.1268">
        <ele>576.6</ele>
        <time>2022-03-28T15:29:38Z</time>
      </trkpt>
      <trkpt lat="43.72078" lon="6.12684">
        <ele>577.4</ele>
        <time>2022-03-28T15:29:48Z</time>
      </trkpt>
      <trkpt lat="43.72071" lon="6.12685">
        <ele>577</ele>
        <time>2022-03-28T15:30:13Z</time>
      </trkpt>
      <trkpt lat="43.72075" lon="6.12683">
        <ele>577.1</ele>
        <time>2022-03-28T15:30:54Z</time>
      </trkpt>
      <trkpt lat="43.72076" lon="6.12686">
        <ele>577.4</ele>
        <time>2022-03-28T15:31:56Z</time>
      </trkpt>
      <trkpt lat="43.7208" lon="6.12686">
        <ele>577.5</ele>
        <time>2022-03-28T15:32:47Z</time>
      </trkpt>
      <trkpt lat="43.72088" lon="6.12698">
        <ele>578.7</ele>
        <time>2022-03-28T15:32:57Z</time>
      </trkpt>
      <trkpt lat="43.72097" lon="6.12709">
        <ele>580.3</ele>
        <time>2022-03-28T15:33:06Z</time>
      </trkpt>
      <trkpt lat="43.72105" lon="6.1272">
        <ele>581.5</ele>
        <time>2022-03-28T15:33:15Z</time>
      </trkpt>
      <trkpt lat="43.72111" lon="6.12731">
        <ele>582.7</ele>
        <time>2022-03-28T15:33:24Z</time>
      </trkpt>
      <trkpt lat="43.72115" lon="6.12742">
        <ele>584.4</ele>
        <time>2022-03-28T15:33:33Z</time>
      </trkpt>
      <trkpt lat="43.72117" lon="6.12756">
        <ele>585.9</ele>
        <time>2022-03-28T15:33:44Z</time>
      </trkpt>
      <trkpt lat="43.72115" lon="6.12775">
        <ele>586.1</ele>
        <time>2022-03-28T15:33:56Z</time>
      </trkpt>
      <trkpt lat="43.72112" lon="6.12793">
        <ele>586.4</ele>
        <time>2022-03-28T15:34:07Z</time>
      </trkpt>
      <trkpt lat="43.72109" lon="6.12807">
        <ele>586.9</ele>
        <time>2022-03-28T15:34:15Z</time>
      </trkpt>
      <trkpt lat="43.72108" lon="6.1282">
        <ele>587.6</ele>
        <time>2022-03-28T15:34:24Z</time>
      </trkpt>
      <trkpt lat="43.72109" lon="6.12834">
        <ele>588.7</ele>
        <time>2022-03-28T15:34:33Z</time>
      </trkpt>
      <trkpt lat="43.72109" lon="6.12847">
        <ele>589.6</ele>
        <time>2022-03-28T15:34:42Z</time>
      </trkpt>
      <trkpt lat="43.72108" lon="6.12861">
        <ele>590.6</ele>
        <time>2022-03-28T15:34:55Z</time>
      </trkpt>
      <trkpt lat="43.72108" lon="6.12879">
        <ele>592</ele>
        <time>2022-03-28T15:35:06Z</time>
      </trkpt>
      <trkpt lat="43.7211" lon="6.12895">
        <ele>592.9</ele>
        <time>2022-03-28T15:35:18Z</time>
      </trkpt>
      <trkpt lat="43.7212" lon="6.12901">
        <ele>595.3</ele>
        <time>2022-03-28T15:35:31Z</time>
      </trkpt>
      <trkpt lat="43.72131" lon="6.12905">
        <ele>598.1</ele>
        <time>2022-03-28T15:35:43Z</time>
      </trkpt>
      <trkpt lat="43.72142" lon="6.12911">
        <ele>600.4</ele>
        <time>2022-03-28T15:36:00Z</time>
      </trkpt>
      <trkpt lat="43.72143" lon="6.12924">
        <ele>600.7</ele>
        <time>2022-03-28T15:36:12Z</time>
      </trkpt>
      <trkpt lat="43.72141" lon="6.12939">
        <ele>600.3</ele>
        <time>2022-03-28T15:36:24Z</time>
      </trkpt>
      <trkpt lat="43.72137" lon="6.12954">
        <ele>600.2</ele>
        <time>2022-03-28T15:36:39Z</time>
      </trkpt>
      <trkpt lat="43.72127" lon="6.12965">
        <ele>600.3</ele>
        <time>2022-03-28T15:37:19Z</time>
      </trkpt>
      <trkpt lat="43.72117" lon="6.1297">
        <ele>600.7</ele>
        <time>2022-03-28T15:37:31Z</time>
      </trkpt>
      <trkpt lat="43.72111" lon="6.1298">
        <ele>602.1</ele>
        <time>2022-03-28T15:37:44Z</time>
      </trkpt>
      <trkpt lat="43.72106" lon="6.12991">
        <ele>603.8</ele>
        <time>2022-03-28T15:38:04Z</time>
      </trkpt>
      <trkpt lat="43.72102" lon="6.12999">
        <ele>604.9</ele>
        <time>2022-03-28T15:38:16Z</time>
      </trkpt>
      <trkpt lat="43.72093" lon="6.13005">
        <ele>605.6</ele>
        <time>2022-03-28T15:38:27Z</time>
      </trkpt>
      <trkpt lat="43.72082" lon="6.13012">
        <ele>606.3</ele>
        <time>2022-03-28T15:38:38Z</time>
      </trkpt>
      <trkpt lat="43.7207" lon="6.1302">
        <ele>606.3</ele>
        <time>2022-03-28T15:38:49Z</time>
      </trkpt>
      <trkpt lat="43.7206" lon="6.13026">
        <ele>606.2</ele>
        <time>2022-03-28T15:38:58Z</time>
      </trkpt>
      <trkpt lat="43.72051" lon="6.13034">
        <ele>605.6</ele>
        <time>2022-03-28T15:39:07Z</time>
      </trkpt>
      <trkpt lat="43.72048" lon="6.13048">
        <ele>605.3</ele>
        <time>2022-03-28T15:39:17Z</time>
      </trkpt>
      <trkpt lat="43.72053" lon="6.13062">
        <ele>607.1</ele>
        <time>2022-03-28T15:39:26Z</time>
      </trkpt>
      <trkpt lat="43.7205" lon="6.13075">
        <ele>606.4</ele>
        <time>2022-03-28T15:39:35Z</time>
      </trkpt>
      <trkpt lat="43.7205" lon="6.13089">
        <ele>606.5</ele>
        <time>2022-03-28T15:39:44Z</time>
      </trkpt>
      <trkpt lat="43.72048" lon="6.13103">
        <ele>606.1</ele>
        <time>2022-03-28T15:39:55Z</time>
      </trkpt>
      <trkpt lat="43.7204" lon="6.13112">
        <ele>604.2</ele>
        <time>2022-03-28T15:40:06Z</time>
      </trkpt>
      <trkpt lat="43.72038" lon="6.13127">
        <ele>604.6</ele>
        <time>2022-03-28T15:40:17Z</time>
      </trkpt>
      <trkpt lat="43.72039" lon="6.1314">
        <ele>605.7</ele>
        <time>2022-03-28T15:40:27Z</time>
      </trkpt>
      <trkpt lat="43.72039" lon="6.13156">
        <ele>606.2</ele>
        <time>2022-03-28T15:40:39Z</time>
      </trkpt>
      <trkpt lat="43.72037" lon="6.1317">
        <ele>606.4</ele>
        <time>2022-03-28T15:40:51Z</time>
      </trkpt>
      <trkpt lat="43.72041" lon="6.13183">
        <ele>607.4</ele>
        <time>2022-03-28T15:41:03Z</time>
      </trkpt>
      <trkpt lat="43.72041" lon="6.13197">
        <ele>608.1</ele>
        <time>2022-03-28T15:41:14Z</time>
      </trkpt>
      <trkpt lat="43.72045" lon="6.13212">
        <ele>609.3</ele>
        <time>2022-03-28T15:41:26Z</time>
      </trkpt>
      <trkpt lat="43.7205" lon="6.13225">
        <ele>610.5</ele>
        <time>2022-03-28T15:41:37Z</time>
      </trkpt>
      <trkpt lat="43.72053" lon="6.13242">
        <ele>611.4</ele>
        <time>2022-03-28T15:41:47Z</time>
      </trkpt>
      <trkpt lat="43.72054" lon="6.13256">
        <ele>612.2</ele>
        <time>2022-03-28T15:41:58Z</time>
      </trkpt>
      <trkpt lat="43.72055" lon="6.13268">
        <ele>613.3</ele>
        <time>2022-03-28T15:42:13Z</time>
      </trkpt>
      <trkpt lat="43.72061" lon="6.13281">
        <ele>615.7</ele>
        <time>2022-03-28T15:42:25Z</time>
      </trkpt>
      <trkpt lat="43.72068" lon="6.13292">
        <ele>618.1</ele>
        <time>2022-03-28T15:42:35Z</time>
      </trkpt>
      <trkpt lat="43.72069" lon="6.13307">
        <ele>619.4</ele>
        <time>2022-03-28T15:42:48Z</time>
      </trkpt>
      <trkpt lat="43.72069" lon="6.13322">
        <ele>620.2</ele>
        <time>2022-03-28T15:43:00Z</time>
      </trkpt>
      <trkpt lat="43.72071" lon="6.13336">
        <ele>621.6</ele>
        <time>2022-03-28T15:43:12Z</time>
      </trkpt>
      <trkpt lat="43.72072" lon="6.13349">
        <ele>622.8</ele>
        <time>2022-03-28T15:43:25Z</time>
      </trkpt>
      <trkpt lat="43.72072" lon="6.13367">
        <ele>623.8</ele>
        <time>2022-03-28T15:43:39Z</time>
      </trkpt>
      <trkpt lat="43.72075" lon="6.13382">
        <ele>625.2</ele>
        <time>2022-03-28T15:43:51Z</time>
      </trkpt>
      <trkpt lat="43.72078" lon="6.13398">
        <ele>626.4</ele>
        <time>2022-03-28T15:44:02Z</time>
      </trkpt>
      <trkpt lat="43.72081" lon="6.13412">
        <ele>627.4</ele>
        <time>2022-03-28T15:44:13Z</time>
      </trkpt>
      <trkpt lat="43.72085" lon="6.13425">
        <ele>629.1</ele>
        <time>2022-03-28T15:44:24Z</time>
      </trkpt>
      <trkpt lat="43.72087" lon="6.13439">
        <ele>630.5</ele>
        <time>2022-03-28T15:44:35Z</time>
      </trkpt>
      <trkpt lat="43.72085" lon="6.13453">
        <ele>630.6</ele>
        <time>2022-03-28T15:44:47Z</time>
      </trkpt>
      <trkpt lat="43.72082" lon="6.13466">
        <ele>630.6</ele>
        <time>2022-03-28T15:44:56Z</time>
      </trkpt>
      <trkpt lat="43.72075" lon="6.13477">
        <ele>631</ele>
        <time>2022-03-28T15:45:07Z</time>
      </trkpt>
      <trkpt lat="43.72065" lon="6.13487">
        <ele>631.2</ele>
        <time>2022-03-28T15:45:19Z</time>
      </trkpt>
      <trkpt lat="43.72054" lon="6.13495">
        <ele>631.3</ele>
        <time>2022-03-28T15:45:29Z</time>
      </trkpt>
      <trkpt lat="43.72042" lon="6.13502">
        <ele>632.5</ele>
        <time>2022-03-28T15:45:41Z</time>
      </trkpt>
      <trkpt lat="43.72035" lon="6.13507">
        <ele>633.3</ele>
        <time>2022-03-28T15:45:49Z</time>
      </trkpt>
      <trkpt lat="43.72028" lon="6.13514">
        <ele>634</ele>
        <time>2022-03-28T15:46:00Z</time>
      </trkpt>
      <trkpt lat="43.72024" lon="6.13525">
        <ele>635.9</ele>
        <time>2022-03-28T15:46:14Z</time>
      </trkpt>
      <trkpt lat="43.72017" lon="6.13536">
        <ele>639</ele>
        <time>2022-03-28T15:46:29Z</time>
      </trkpt>
      <trkpt lat="43.72007" lon="6.13547">
        <ele>641.3</ele>
        <time>2022-03-28T15:46:47Z</time>
      </trkpt>
      <trkpt lat="43.71995" lon="6.13555">
        <ele>642.1</ele>
        <time>2022-03-28T15:47:03Z</time>
      </trkpt>
      <trkpt lat="43.71984" lon="6.13551">
        <ele>642.1</ele>
        <time>2022-03-28T15:47:14Z</time>
      </trkpt>
      <trkpt lat="43.71974" lon="6.13548">
        <ele>642.1</ele>
        <time>2022-03-28T15:47:25Z</time>
      </trkpt>
      <trkpt lat="43.71964" lon="6.13543">
        <ele>641.9</ele>
        <time>2022-03-28T15:47:35Z</time>
      </trkpt>
      <trkpt lat="43.71954" lon="6.13542">
        <ele>642.1</ele>
        <time>2022-03-28T15:47:46Z</time>
      </trkpt>
      <trkpt lat="43.71946" lon="6.13545">
        <ele>642.6</ele>
        <time>2022-03-28T15:47:56Z</time>
      </trkpt>
      <trkpt lat="43.71939" lon="6.13553">
        <ele>642</ele>
        <time>2022-03-28T15:48:09Z</time>
      </trkpt>
      <trkpt lat="43.7194" lon="6.13554">
        <ele>642.2</ele>
        <time>2022-03-28T15:49:26Z</time>
      </trkpt>
      <trkpt lat="43.71942" lon="6.13561">
        <ele>643</ele>
        <time>2022-03-28T15:50:13Z</time>
      </trkpt>
      <trkpt lat="43.71937" lon="6.13573">
        <ele>643</ele>
        <time>2022-03-28T15:50:32Z</time>
      </trkpt>
      <trkpt lat="43.71933" lon="6.13586">
        <ele>643.5</ele>
        <time>2022-03-28T15:50:41Z</time>
      </trkpt>
      <trkpt lat="43.71928" lon="6.13597">
        <ele>643.3</ele>
        <time>2022-03-28T15:50:50Z</time>
      </trkpt>
      <trkpt lat="43.71919" lon="6.13604">
        <ele>642.2</ele>
        <time>2022-03-28T15:50:59Z</time>
      </trkpt>
      <trkpt lat="43.71912" lon="6.13617">
        <ele>642.3</ele>
        <time>2022-03-28T15:51:12Z</time>
      </trkpt>
      <trkpt lat="43.71908" lon="6.13631">
        <ele>643.7</ele>
        <time>2022-03-28T15:51:25Z</time>
      </trkpt>
      <trkpt lat="43.71908" lon="6.13636">
        <ele>644.4</ele>
        <time>2022-03-28T15:51:45Z</time>
      </trkpt>
      <trkpt lat="43.719" lon="6.13636">
        <ele>643.3</ele>
        <time>2022-03-28T15:52:02Z</time>
      </trkpt>
      <trkpt lat="43.7189" lon="6.13647">
        <ele>644.5</ele>
        <time>2022-03-28T15:52:14Z</time>
      </trkpt>
      <trkpt lat="43.71881" lon="6.1365">
        <ele>645.1</ele>
        <time>2022-03-28T15:52:26Z</time>
      </trkpt>
      <trkpt lat="43.7187" lon="6.13655">
        <ele>645.9</ele>
        <time>2022-03-28T15:52:36Z</time>
      </trkpt>
      <trkpt lat="43.71861" lon="6.13652">
        <ele>645</ele>
        <time>2022-03-28T15:52:47Z</time>
      </trkpt>
      <trkpt lat="43.7185" lon="6.1365">
        <ele>645.8</ele>
        <time>2022-03-28T15:52:57Z</time>
      </trkpt>
      <trkpt lat="43.7184" lon="6.13648">
        <ele>646.4</ele>
        <time>2022-03-28T15:53:06Z</time>
      </trkpt>
      <trkpt lat="43.7183" lon="6.13646">
        <ele>647</ele>
        <time>2022-03-28T15:53:15Z</time>
      </trkpt>
      <trkpt lat="43.71821" lon="6.13648">
        <ele>647.5</ele>
        <time>2022-03-28T15:53:24Z</time>
      </trkpt>
      <trkpt lat="43.71812" lon="6.1365">
        <ele>648</ele>
        <time>2022-03-28T15:53:34Z</time>
      </trkpt>
      <trkpt lat="43.71803" lon="6.13649">
        <ele>647.7</ele>
        <time>2022-03-28T15:53:47Z</time>
      </trkpt>
      <trkpt lat="43.71801" lon="6.13648">
        <ele>647.4</ele>
        <time>2022-03-28T15:55:02Z</time>
      </trkpt>
      <trkpt lat="43.718" lon="6.13643">
        <ele>646.5</ele>
        <time>2022-03-28T15:55:42Z</time>
      </trkpt>
      <trkpt lat="43.71808" lon="6.13639">
        <ele>646</ele>
        <time>2022-03-28T15:56:24Z</time>
      </trkpt>
      <trkpt lat="43.71805" lon="6.1363">
        <ele>644.4</ele>
        <time>2022-03-28T15:56:38Z</time>
      </trkpt>
      <trkpt lat="43.71798" lon="6.1363">
        <ele>644.3</ele>
        <time>2022-03-28T15:57:01Z</time>
      </trkpt>
      <trkpt lat="43.71792" lon="6.1363">
        <ele>644.4</ele>
        <time>2022-03-28T15:57:24Z</time>
      </trkpt>
      <trkpt lat="43.71795" lon="6.13625">
        <ele>643.6</ele>
        <time>2022-03-28T15:57:36Z</time>
      </trkpt>
    </trkseg>
  </trk>
</gpx>